Darstellungsparameter: Aktuell verwendete Einstellungen:
Skalierung der Graphiken ... ?
xyx+y,   Skalierungsfaktor:      Skalierung: Modus: x, Faktor: 1
Darstellungszeitraum ... ?
Vom - - bis: - -   Zeitraum: 02.09.2014 - 06.09.2014
Min/Max/Avg-Anzeige ... ?
Zeige MMA aktuell
Zeige MMA Monat
Zeige MMA alles
Zeige --A aktuell
Zeige --A Monat
Zeige --A alles
Keine MMA-Anzeige
MMA:
Keine MMA-Graphiken
MMA-Basis: 02.09.2014 - 06.09.2014
Quicknavigation für Darstellung... ?
Tage:      1T, 2T, 3T, 5T -1T -2T -3T -5T +1T +2T +3T +5T
Wochen: 1W, 2W, 3W -1W -2W -3W +1W +2W +3W
Monate: 1M, 3M, 6M -1M -3M -6M +1M +3M +6M
Jahre:    1J, 3J, 5J, 10J -1J -3J -5J -10J +1J +3J +5J +10J
Nutze für die Darstellung ... ?
Originaldaten oder Mittelwerte auf ...
Stundenbasis Tagesbasis Wochenbasis
Monatsbasis Jahresbasis      Datenbasis: Original-Daten
Darstellen als:
Statistik (Auto) Statistik J:M      Darstellung:
Zur Graphik,    zurück zur Übersicht aller Sensoren.
 
Tabellarische Datenbersicht: ?
 
Sensor: Nr:Datum:Temp:Abs-Feuchte:Windchill:Wind:
Aussen-T/F 1 02-09-2014 00:00:00 12.7 C 10.69 g/m*3 12.7 C 0 km/h
2 02-09-2014 00:05:00 12.6 C 10.62 g/m*3 12.6 C 0 km/h
3 02-09-2014 00:10:00 12.6 C 10.62 g/m*3 12.6 C 0 km/h
4 02-09-2014 00:15:00 12.6 C 10.62 g/m*3 12.6 C 0 km/h
5 02-09-2014 00:20:00 12.6 C 10.62 g/m*3 12.6 C 0 km/h
6 02-09-2014 00:25:00 12.7 C 10.69 g/m*3 12.7 C 0 km/h
7 02-09-2014 00:30:00 12.7 C 10.8 g/m*3 12.7 C 0 km/h
8 02-09-2014 00:35:00 12.7 C 10.8 g/m*3 12.7 C 0 km/h
9 02-09-2014 00:40:00 12.8 C 10.87 g/m*3 12.8 C 0 km/h
10 02-09-2014 00:45:00 12.8 C 10.87 g/m*3 12.8 C 0 km/h
11 02-09-2014 00:50:00 12.9 C 10.93 g/m*3 12.9 C 0 km/h
12 02-09-2014 00:55:00 12.9 C 10.93 g/m*3 12.9 C 0 km/h
13 02-09-2014 01:00:00 12.8 C 10.87 g/m*3 12.8 C 0 km/h
14 02-09-2014 01:05:00 12.8 C 10.75 g/m*3 12.8 C 0 km/h
15 02-09-2014 01:10:00 12.8 C 10.75 g/m*3 12.8 C 0 km/h
16 02-09-2014 01:15:00 12.7 C 10.69 g/m*3 12.7 C 0 km/h
17 02-09-2014 01:20:00 12.6 C 10.62 g/m*3 12.6 C 0 km/h
18 02-09-2014 01:25:00 12.4 C 10.49 g/m*3 12.4 C 0 km/h
19 02-09-2014 01:30:00 12.4 C 10.49 g/m*3 12.4 C 0 km/h
20 02-09-2014 01:35:00 12.3 C 10.42 g/m*3 12.3 C 0 km/h
21 02-09-2014 01:40:00 12.3 C 10.42 g/m*3 12.3 C 0 km/h
22 02-09-2014 01:45:00 12.2 C 10.36 g/m*3 12.2 C 0 km/h
23 02-09-2014 01:50:00 12.1 C 10.29 g/m*3 12.1 C 0 km/h
24 02-09-2014 01:55:00 12.1 C 10.29 g/m*3 12.1 C 0 km/h
25 02-09-2014 02:00:00 12 C 10.23 g/m*3 12 C 0 km/h
Sensor: Nr:Datum:Temp:Abs-Feuchte:Windchill:Wind:
Aussen-T/F 26 02-09-2014 02:05:00 11.9 C 10.17 g/m*3 11.9 C 0 km/h
27 02-09-2014 02:10:00 11.9 C 10.17 g/m*3 11.9 C 0 km/h
28 02-09-2014 02:15:00 11.9 C 10.17 g/m*3 11.9 C 0 km/h
29 02-09-2014 02:20:00 11.8 C 10.21 g/m*3 11.8 C 0 km/h
30 02-09-2014 02:25:00 11.8 C 10.21 g/m*3 11.8 C 0 km/h
31 02-09-2014 02:30:00 11.7 C 10.15 g/m*3 11.7 C 0 km/h
32 02-09-2014 02:35:00 11.6 C 9.98 g/m*3 11.6 C 0 km/h
33 02-09-2014 02:40:00 11.5 C 9.92 g/m*3 11.5 C 0 km/h
34 02-09-2014 02:45:00 11.5 C 10.02 g/m*3 11.5 C 0 km/h
35 02-09-2014 02:50:00 11.5 C 10.02 g/m*3 11.5 C 0 km/h
36 02-09-2014 02:55:00 11.4 C 9.96 g/m*3 11.4 C 0 km/h
37 02-09-2014 03:00:00 11.4 C 9.96 g/m*3 11.4 C 0 km/h
38 02-09-2014 03:05:00 11.4 C 9.96 g/m*3 11.4 C 0 km/h
39 02-09-2014 03:10:00 11.4 C 9.96 g/m*3 11.4 C 0 km/h
40 02-09-2014 03:15:00 11.4 C 9.96 g/m*3 11.4 C 0 km/h
41 02-09-2014 03:20:00 11.4 C 9.96 g/m*3 11.4 C 0 km/h
42 02-09-2014 03:25:00 11.4 C 9.96 g/m*3 11.4 C 0 km/h
43 02-09-2014 03:30:00 11.4 C 9.96 g/m*3 11.4 C 0 km/h
44 02-09-2014 03:35:00 11.4 C 9.96 g/m*3 11.4 C 0 km/h
45 02-09-2014 03:40:00 11.4 C 9.96 g/m*3 11.4 C 0 km/h
46 02-09-2014 03:45:00 11.3 C 9.89 g/m*3 11.3 C 0 km/h
47 02-09-2014 03:50:00 11.3 C 9.89 g/m*3 11.3 C 0 km/h
48 02-09-2014 03:55:00 11.3 C 9.89 g/m*3 11.3 C 0 km/h
49 02-09-2014 04:00:00 11.3 C 9.89 g/m*3 11.3 C 0 km/h
50 02-09-2014 04:05:00 11.3 C 9.89 g/m*3 11.3 C 0 km/h
Sensor: Nr:Datum:Temp:Abs-Feuchte:Windchill:Wind:
Aussen-T/F 51 02-09-2014 04:10:00 11.3 C 9.89 g/m*3 11.3 C 0 km/h
52 02-09-2014 04:15:00 11.3 C 9.89 g/m*3 11.3 C 0 km/h
53 02-09-2014 04:20:00 11.3 C 9.89 g/m*3 11.3 C 0 km/h
54 02-09-2014 04:25:00 11.3 C 9.89 g/m*3 11.3 C 0 km/h
55 02-09-2014 04:30:00 11.3 C 9.89 g/m*3 11.3 C 0 km/h
56 02-09-2014 04:35:00 11.3 C 9.89 g/m*3 11.3 C 0 km/h
57 02-09-2014 04:40:00 11.4 C 9.96 g/m*3 11.4 C 0 km/h
58 02-09-2014 04:45:00 11.4 C 9.96 g/m*3 11.4 C 0 km/h
59 02-09-2014 04:50:00 11.4 C 9.96 g/m*3 11.4 C 0 km/h
60 02-09-2014 04:55:00 11.4 C 9.96 g/m*3 11.4 C 0 km/h
61 02-09-2014 05:00:00 11.4 C 9.96 g/m*3 11.4 C 0 km/h
62 02-09-2014 05:05:00 11.3 C 9.89 g/m*3 11.3 C 0 km/h
63 02-09-2014 05:10:00 11.3 C 9.89 g/m*3 11.3 C 0 km/h
64 02-09-2014 05:15:00 11.3 C 9.89 g/m*3 11.3 C 0 km/h
65 02-09-2014 05:20:00 11.3 C 9.89 g/m*3 11.3 C 0 km/h
66 02-09-2014 05:25:00 11.3 C 9.89 g/m*3 11.3 C 0 km/h
67 02-09-2014 05:30:00 11.2 C 9.83 g/m*3 11.2 C 0 km/h
68 02-09-2014 05:35:00 11.2 C 9.83 g/m*3 11.2 C 0 km/h
69 02-09-2014 05:40:00 11.2 C 9.83 g/m*3 11.2 C 0 km/h
70 02-09-2014 05:45:00 11.2 C 9.93 g/m*3 11.2 C 0 km/h
71 02-09-2014 05:50:00 11.3 C 10 g/m*3 11.3 C 0 km/h
72 02-09-2014 05:55:00 11.2 C 9.93 g/m*3 11.2 C 0 km/h
73 02-09-2014 06:00:00 11.2 C 9.93 g/m*3 11.2 C 0 km/h
74 02-09-2014 06:05:00 11.1 C 9.77 g/m*3 11.1 C 0 km/h
75 02-09-2014 06:10:00 11.1 C 9.77 g/m*3 11.1 C 0 km/h
Sensor: Nr:Datum:Temp:Abs-Feuchte:Windchill:Wind:
Aussen-T/F 76 02-09-2014 06:15:00 11.1 C 9.77 g/m*3 11.1 C 0 km/h
77 02-09-2014 06:20:00 11.1 C 9.77 g/m*3 11.1 C 0 km/h
78 02-09-2014 06:25:00 11 C 9.71 g/m*3 11 C 0 km/h
79 02-09-2014 06:30:00 11 C 9.71 g/m*3 11 C 0 km/h
80 02-09-2014 06:35:00 11 C 9.71 g/m*3 11 C 0 km/h
81 02-09-2014 06:40:00 10.9 C 9.65 g/m*3 10.9 C 0 km/h
82 02-09-2014 06:45:00 10.9 C 9.65 g/m*3 10.9 C 0 km/h
83 02-09-2014 06:50:00 10.9 C 9.75 g/m*3 10.9 C 0 km/h
84 02-09-2014 06:55:00 10.9 C 9.75 g/m*3 10.9 C 0 km/h
85 02-09-2014 07:00:00 10.9 C 9.75 g/m*3 10.9 C 0 km/h
86 02-09-2014 07:05:00 10.9 C 9.75 g/m*3 10.9 C 0 km/h
87 02-09-2014 07:10:00 10.8 C 9.69 g/m*3 10.8 C 0 km/h
88 02-09-2014 07:15:00 10.8 C 9.59 g/m*3 10.8 C 0 km/h
89 02-09-2014 07:20:00 10.8 C 9.59 g/m*3 10.8 C 0 km/h
90 02-09-2014 07:25:00 10.7 C 9.53 g/m*3 10.7 C 0 km/h
91 02-09-2014 07:30:00 10.7 C 9.53 g/m*3 10.7 C 0 km/h
92 02-09-2014 07:35:00 10.7 C 9.63 g/m*3 10.7 C 0 km/h
93 02-09-2014 07:40:00 10.7 C 9.63 g/m*3 10.7 C 0 km/h
94 02-09-2014 07:45:00 10.7 C 9.63 g/m*3 10.7 C 0 km/h
95 02-09-2014 07:50:00 10.8 C 9.69 g/m*3 10.8 C 0 km/h
96 02-09-2014 07:55:00 10.8 C 9.69 g/m*3 10.8 C 0 km/h
97 02-09-2014 08:00:00 10.8 C 9.69 g/m*3 10.8 C 0 km/h
98 02-09-2014 08:05:00 10.8 C 9.69 g/m*3 10.8 C 0 km/h
99 02-09-2014 08:10:00 10.8 C 9.69 g/m*3 10.8 C 0 km/h
100 02-09-2014 08:15:00 10.8 C 9.69 g/m*3 10.8 C 0 km/h
Sensor: Nr:Datum:Temp:Abs-Feuchte:Windchill:Wind:
Aussen-T/F 101 02-09-2014 08:20:00 10.8 C 9.69 g/m*3 10.8 C 0 km/h
102 02-09-2014 08:25:00 10.9 C 9.75 g/m*3 10.9 C 0 km/h
103 02-09-2014 08:30:00 10.9 C 9.75 g/m*3 10.9 C 0 km/h
104 02-09-2014 08:35:00 10.9 C 9.75 g/m*3 10.9 C 0 km/h
105 02-09-2014 08:40:00 10.9 C 9.75 g/m*3 10.9 C 0 km/h
106 02-09-2014 08:45:00 10.8 C 9.69 g/m*3 10.8 C 0 km/h
107 02-09-2014 08:50:00 10.9 C 9.75 g/m*3 10.9 C 0 km/h
108 02-09-2014 08:55:00 10.9 C 9.75 g/m*3 10.9 C 0 km/h
109 02-09-2014 09:00:00 11 C 9.81 g/m*3 11 C 0 km/h
110 02-09-2014 09:05:00 11.1 C 9.87 g/m*3 11.1 C 0 km/h
111 02-09-2014 09:10:00 11.1 C 9.87 g/m*3 11.1 C 0 km/h
112 02-09-2014 09:15:00 11.1 C 9.87 g/m*3 11.1 C 0 km/h
113 02-09-2014 09:20:00 11.1 C 9.87 g/m*3 11.1 C 0 km/h
114 02-09-2014 09:25:00 11.2 C 9.93 g/m*3 11.2 C 0 km/h
115 02-09-2014 09:30:00 11.2 C 9.93 g/m*3 11.2 C 0 km/h
116 02-09-2014 09:35:00 11.3 C 10 g/m*3 11.3 C 0 km/h
117 02-09-2014 09:40:00 11.3 C 10 g/m*3 11.3 C 0 km/h
118 02-09-2014 09:45:00 11.3 C 10 g/m*3 11.3 C 0 km/h
119 02-09-2014 09:50:00 11.4 C 10.06 g/m*3 11.4 C 0 km/h
120 02-09-2014 09:55:00 11.4 C 10.06 g/m*3 11.4 C 0 km/h
121 02-09-2014 10:00:00 11.5 C 10.12 g/m*3 11.5 C 0 km/h
122 02-09-2014 10:05:00 11.6 C 10.19 g/m*3 11.6 C 0 km/h
123 02-09-2014 10:10:00 11.6 C 10.19 g/m*3 11.6 C 0 km/h
124 02-09-2014 10:15:00 11.7 C 10.25 g/m*3 11.7 C 0 km/h
125 02-09-2014 10:20:00 11.8 C 10.31 g/m*3 11.8 C 0 km/h
Sensor: Nr:Datum:Temp:Abs-Feuchte:Windchill:Wind:
Aussen-T/F 126 02-09-2014 10:25:00 11.9 C 10.38 g/m*3 11.9 C 0 km/h
127 02-09-2014 10:30:00 11.9 C 10.38 g/m*3 11.9 C 0 km/h
128 02-09-2014 10:35:00 11.9 C 10.38 g/m*3 11.9 C 0 km/h
129 02-09-2014 10:40:00 12 C 10.44 g/m*3 12 C 0 km/h
130 02-09-2014 10:45:00 12.3 C 10.64 g/m*3 12.3 C 0 km/h
131 02-09-2014 10:50:00 12.5 C 10.77 g/m*3 12.5 C 0 km/h
132 02-09-2014 10:55:00 12.7 C 10.91 g/m*3 12.7 C 0 km/h
133 02-09-2014 11:00:00 12.8 C 10.98 g/m*3 12.8 C 0 km/h
134 02-09-2014 11:05:00 12.8 C 10.87 g/m*3 12.8 C 0 km/h
135 02-09-2014 11:10:00 13 C 11 g/m*3 13 C 0 km/h
136 02-09-2014 11:15:00 13.2 C 11.14 g/m*3 13.2 C 0 km/h
137 02-09-2014 11:20:00 13.4 C 11.16 g/m*3 13.4 C 0 km/h
138 02-09-2014 11:25:00 13.6 C 11.3 g/m*3 13.6 C 0 km/h
139 02-09-2014 11:30:00 13.8 C 11.32 g/m*3 13.8 C 0 km/h
140 02-09-2014 11:35:00 14.1 C 11.53 g/m*3 14.1 C 0 km/h
141 02-09-2014 11:40:00 14.3 C 11.55 g/m*3 14.3 C 0 km/h
142 02-09-2014 11:45:00 14.4 C 11.62 g/m*3 14.4 C 0 km/h
143 02-09-2014 11:50:00 14.6 C 11.64 g/m*3 14.6 C 0 km/h
144 02-09-2014 11:55:00 14.8 C 11.78 g/m*3 14.8 C 0 km/h
145 02-09-2014 12:00:00 15.1 C 11.87 g/m*3 15.1 C 0 km/h
146 02-09-2014 12:05:00 15.2 C 11.94 g/m*3 15.2 C 0 km/h
147 02-09-2014 12:10:00 15.2 C 11.94 g/m*3 15.2 C 0 km/h
148 02-09-2014 12:15:00 15.2 C 11.94 g/m*3 15.2 C 0 km/h
149 02-09-2014 12:20:00 15.3 C 11.75 g/m*3 15.3 C 0 km/h
150 02-09-2014 12:25:00 15.4 C 12.09 g/m*3 15.4 C 0 km/h
Sensor: Nr:Datum:Temp:Abs-Feuchte:Windchill:Wind:
Aussen-T/F 151 02-09-2014 12:30:00 15.6 C 11.84 g/m*3 15.6 C 0 km/h
152 02-09-2014 12:35:00 16 C 11.99 g/m*3 16 C 0 km/h
153 02-09-2014 12:40:00 16.2 C 12.41 g/m*3 16.2 C 0 km/h
154 02-09-2014 12:45:00 16.5 C 12.36 g/m*3 16.5 C 0 km/h
155 02-09-2014 12:50:00 16.9 C 12.8 g/m*3 16.9 C 0 km/h
156 02-09-2014 12:55:00 17.2 C 12.01 g/m*3 17.2 C 12.9 km/h
157 02-09-2014 13:00:00 17.9 C 12.06 g/m*3 17.9 C 12.9 km/h
158 02-09-2014 13:05:00 18.8 C 12.08 g/m*3 18.8 C 9.7 km/h
159 02-09-2014 13:10:00 19.4 C 12.01 g/m*3 19.4 C 4.8 km/h
160 02-09-2014 13:15:00 20 C 12.44 g/m*3 20 C 8.1 km/h
161 02-09-2014 13:20:00 20.3 C 11.96 g/m*3 20.3 C 6.4 km/h
162 02-09-2014 13:25:00 20.4 C 12.91 g/m*3 20.4 C 9.7 km/h
163 02-09-2014 13:30:00 20.5 C 12.1 g/m*3 20.5 C 8.1 km/h
164 02-09-2014 13:35:00 20.6 C 11.99 g/m*3 20.6 C 6.4 km/h
165 02-09-2014 13:40:00 20.6 C 11.99 g/m*3 20.6 C 6.4 km/h
166 02-09-2014 13:45:00 20.6 C 12.35 g/m*3 20.6 C 11.3 km/h
167 02-09-2014 13:50:00 20.6 C 11.81 g/m*3 20.6 C 11.3 km/h
168 02-09-2014 13:55:00 20.6 C 11.99 g/m*3 20.6 C 6.4 km/h
169 02-09-2014 14:00:00 20.4 C 12.38 g/m*3 20.4 C 3.2 km/h
170 02-09-2014 14:05:00 20.2 C 12.76 g/m*3 20.2 C 3.2 km/h
171 02-09-2014 14:10:00 20.2 C 11.54 g/m*3 20.2 C 4.8 km/h
172 02-09-2014 14:15:00 20.1 C 10.43 g/m*3 20.1 C 4.8 km/h
173 02-09-2014 14:20:00 20.1 C 10.95 g/m*3 20.1 C 8.1 km/h
174 02-09-2014 14:25:00 20.4 C 11.5 g/m*3 20.4 C 6.4 km/h
175 02-09-2014 14:30:00 20.8 C 11.41 g/m*3 20.8 C 3.2 km/h
Sensor: Nr:Datum:Temp:Abs-Feuchte:Windchill:Wind:
Aussen-T/F 176 02-09-2014 14:35:00 21.1 C 11.79 g/m*3 21.1 C 6.4 km/h
177 02-09-2014 14:40:00 21.4 C 11.25 g/m*3 21.4 C 9.7 km/h
178 02-09-2014 14:45:00 21.7 C 11.06 g/m*3 21.7 C 8.1 km/h
179 02-09-2014 14:50:00 21.8 C 11.32 g/m*3 21.8 C 9.7 km/h
180 02-09-2014 14:55:00 21.9 C 11 g/m*3 21.9 C 12.9 km/h
181 02-09-2014 15:00:00 21.9 C 10.81 g/m*3 21.9 C 9.7 km/h
182 02-09-2014 15:05:00 21.9 C 11.19 g/m*3 21.9 C 8.1 km/h
183 02-09-2014 15:10:00 22 C 10.87 g/m*3 22 C 6.4 km/h
184 02-09-2014 15:15:00 22 C 11.45 g/m*3 22 C 8.1 km/h
185 02-09-2014 15:20:00 22.2 C 11.39 g/m*3 22.2 C 4.8 km/h
186 02-09-2014 15:25:00 22.2 C 11.39 g/m*3 22.2 C 9.7 km/h
187 02-09-2014 15:30:00 22.1 C 11.71 g/m*3 22.1 C 9.7 km/h
188 02-09-2014 15:35:00 21.8 C 12.09 g/m*3 21.8 C 6.4 km/h
189 02-09-2014 15:40:00 21.5 C 12.45 g/m*3 21.5 C 4.8 km/h
190 02-09-2014 15:45:00 21.3 C 12.12 g/m*3 21.3 C 6.4 km/h
191 02-09-2014 15:50:00 21.2 C 12.97 g/m*3 21.2 C 1.6 km/h
192 02-09-2014 15:55:00 20.6 C 13.24 g/m*3 20.6 C 0 km/h
193 02-09-2014 16:00:00 20 C 12.1 g/m*3 20 C 4.8 km/h
194 02-09-2014 16:05:00 19.8 C 12.47 g/m*3 19.8 C 4.8 km/h
195 02-09-2014 16:10:00 19.7 C 13.08 g/m*3 19.7 C 3.2 km/h
196 02-09-2014 16:15:00 19.3 C 13.1 g/m*3 19.3 C 1.6 km/h
197 02-09-2014 16:20:00 18.9 C 13.12 g/m*3 18.9 C 1.6 km/h
198 02-09-2014 16:25:00 18.7 C 13.13 g/m*3 18.7 C 0 km/h
199 02-09-2014 16:30:00 18.4 C 13.21 g/m*3 18.4 C 0 km/h
200 02-09-2014 16:35:00 18.2 C 13.21 g/m*3 18.2 C 0 km/h
Sensor: Nr:Datum:Temp:Abs-Feuchte:Windchill:Wind:
Aussen-T/F 201 02-09-2014 16:40:00 18.2 C 13.37 g/m*3 18.2 C 0 km/h
202 02-09-2014 16:45:00 18.2 C 13.37 g/m*3 18.2 C 1.6 km/h
203 02-09-2014 16:50:00 18.1 C 13.29 g/m*3 18.1 C 0 km/h
204 02-09-2014 16:55:00 18.1 C 13.29 g/m*3 18.1 C 0 km/h
205 02-09-2014 17:00:00 17.9 C 13.28 g/m*3 17.9 C 0 km/h
206 02-09-2014 17:05:00 17.8 C 13.36 g/m*3 17.8 C 0 km/h
207 02-09-2014 17:10:00 17.7 C 13.28 g/m*3 17.7 C 1.6 km/h
208 02-09-2014 17:15:00 17.7 C 13.28 g/m*3 17.7 C 0 km/h
209 02-09-2014 17:20:00 17.6 C 13.2 g/m*3 17.6 C 0 km/h
210 02-09-2014 17:25:00 17.5 C 13.27 g/m*3 17.5 C 3.2 km/h
211 02-09-2014 17:30:00 17.6 C 13.2 g/m*3 17.6 C 1.6 km/h
212 02-09-2014 17:35:00 17.7 C 12.98 g/m*3 17.7 C 3.2 km/h
213 02-09-2014 17:40:00 17.8 C 13.2 g/m*3 17.8 C 1.6 km/h
214 02-09-2014 17:45:00 17.7 C 13.13 g/m*3 17.7 C 0 km/h
215 02-09-2014 17:50:00 17.7 C 13.28 g/m*3 17.7 C 0 km/h
216 02-09-2014 17:55:00 17.6 C 13.2 g/m*3 17.6 C 0 km/h
217 02-09-2014 18:00:00 17.6 C 13.05 g/m*3 17.6 C 1.6 km/h
218 02-09-2014 18:05:00 17.6 C 13.2 g/m*3 17.6 C 1.6 km/h
219 02-09-2014 18:10:00 17.5 C 13.12 g/m*3 17.5 C 0 km/h
220 02-09-2014 18:15:00 17.3 C 13.11 g/m*3 17.3 C 0 km/h
221 02-09-2014 18:20:00 17.2 C 13.03 g/m*3 17.2 C 0 km/h
222 02-09-2014 18:25:00 17.1 C 13.1 g/m*3 17.1 C 0 km/h
223 02-09-2014 18:30:00 17 C 13.02 g/m*3 17 C 0 km/h
224 02-09-2014 18:35:00 16.9 C 12.94 g/m*3 16.9 C 1.6 km/h
225 02-09-2014 18:40:00 16.8 C 13.01 g/m*3 16.8 C 0 km/h
Sensor: Nr:Datum:Temp:Abs-Feuchte:Windchill:Wind:
Aussen-T/F 226 02-09-2014 18:45:00 16.7 C 12.93 g/m*3 16.7 C 0 km/h
227 02-09-2014 18:50:00 16.7 C 12.93 g/m*3 16.7 C 0 km/h
228 02-09-2014 18:55:00 16.7 C 12.93 g/m*3 16.7 C 0 km/h
229 02-09-2014 19:00:00 16.6 C 12.86 g/m*3 16.6 C 0 km/h
230 02-09-2014 19:05:00 16.6 C 13 g/m*3 16.6 C 0 km/h
231 02-09-2014 19:10:00 16.7 C 13.07 g/m*3 16.7 C 0 km/h
232 02-09-2014 19:15:00 16.6 C 12.86 g/m*3 16.6 C 0 km/h
233 02-09-2014 19:20:00 16.4 C 12.84 g/m*3 16.4 C 0 km/h
234 02-09-2014 19:25:00 16.3 C 12.76 g/m*3 16.3 C 0 km/h
235 02-09-2014 19:30:00 16.3 C 12.76 g/m*3 16.3 C 0 km/h
236 02-09-2014 19:35:00 16.3 C 12.76 g/m*3 16.3 C 0 km/h
237 02-09-2014 19:40:00 16.4 C 12.98 g/m*3 16.4 C 0 km/h
238 02-09-2014 19:45:00 16.4 C 12.98 g/m*3 16.4 C 0 km/h
239 02-09-2014 19:50:00 16.4 C 12.84 g/m*3 16.4 C 0 km/h
240 02-09-2014 19:55:00 16.4 C 12.84 g/m*3 16.4 C 0 km/h
241 02-09-2014 20:00:00 16.4 C 12.84 g/m*3 16.4 C 0 km/h
242 02-09-2014 20:05:00 16.3 C 12.9 g/m*3 16.3 C 0 km/h
243 02-09-2014 20:10:00 16.3 C 12.9 g/m*3 16.3 C 0 km/h
244 02-09-2014 20:15:00 16.3 C 12.9 g/m*3 16.3 C 0 km/h
245 02-09-2014 20:20:00 16.3 C 12.9 g/m*3 16.3 C 0 km/h
246 02-09-2014 20:25:00 16.3 C 12.9 g/m*3 16.3 C 0 km/h
247 02-09-2014 20:30:00 16.3 C 12.9 g/m*3 16.3 C 0 km/h
248 02-09-2014 20:35:00 16.2 C 12.82 g/m*3 16.2 C 0 km/h
249 02-09-2014 20:40:00 16.2 C 12.82 g/m*3 16.2 C 0 km/h
250 02-09-2014 20:45:00 16.2 C 12.82 g/m*3 16.2 C 0 km/h
Sensor: Nr:Datum:Temp:Abs-Feuchte:Windchill:Wind:
Aussen-T/F 251 02-09-2014 20:50:00 16.1 C 12.75 g/m*3 16.1 C 0 km/h
252 02-09-2014 20:55:00 16 C 12.67 g/m*3 16 C 0 km/h
253 02-09-2014 21:00:00 15.9 C 12.59 g/m*3 15.9 C 0 km/h
254 02-09-2014 21:05:00 15.8 C 12.52 g/m*3 15.8 C 0 km/h
255 02-09-2014 21:10:00 15.7 C 12.44 g/m*3 15.7 C 0 km/h
256 02-09-2014 21:15:00 15.7 C 12.44 g/m*3 15.7 C 0 km/h
257 02-09-2014 21:20:00 15.6 C 12.37 g/m*3 15.6 C 0 km/h
258 02-09-2014 21:25:00 15.6 C 12.37 g/m*3 15.6 C 0 km/h
259 02-09-2014 21:30:00 15.6 C 12.37 g/m*3 15.6 C 0 km/h
260 02-09-2014 21:35:00 15.6 C 12.5 g/m*3 15.6 C 0 km/h
261 02-09-2014 21:40:00 15.6 C 12.5 g/m*3 15.6 C 0 km/h
262 02-09-2014 21:45:00 15.5 C 12.43 g/m*3 15.5 C 0 km/h
263 02-09-2014 21:50:00 15.4 C 12.35 g/m*3 15.4 C 0 km/h
264 02-09-2014 21:55:00 15.4 C 12.35 g/m*3 15.4 C 0 km/h
265 02-09-2014 22:00:00 15.3 C 12.28 g/m*3 15.3 C 0 km/h
266 02-09-2014 22:05:00 15.3 C 12.41 g/m*3 15.3 C 0 km/h
267 02-09-2014 22:10:00 15.3 C 12.41 g/m*3 15.3 C 0 km/h
268 02-09-2014 22:15:00 15.3 C 12.41 g/m*3 15.3 C 0 km/h
269 02-09-2014 22:20:00 15.4 C 12.48 g/m*3 15.4 C 0 km/h
270 02-09-2014 22:25:00 15.4 C 12.48 g/m*3 15.4 C 0 km/h
271 02-09-2014 22:30:00 15.5 C 12.56 g/m*3 15.5 C 0 km/h
272 02-09-2014 22:35:00 15.6 C 12.63 g/m*3 15.6 C 0 km/h
273 02-09-2014 22:40:00 15.6 C 12.63 g/m*3 15.6 C 0 km/h
274 02-09-2014 22:45:00 15.5 C 12.56 g/m*3 15.5 C 0 km/h
275 02-09-2014 22:50:00 15.4 C 12.48 g/m*3 15.4 C 0 km/h
Sensor: Nr:Datum:Temp:Abs-Feuchte:Windchill:Wind:
Aussen-T/F 276 02-09-2014 22:55:00 15.3 C 12.41 g/m*3 15.3 C 0 km/h
277 02-09-2014 23:00:00 15.2 C 12.2 g/m*3 15.2 C 0 km/h
278 02-09-2014 23:05:00 15.1 C 12.13 g/m*3 15.1 C 0 km/h
279 02-09-2014 23:10:00 15 C 12.18 g/m*3 15 C 0 km/h
280 02-09-2014 23:15:00 14.9 C 12.11 g/m*3 14.9 C 0 km/h
281 02-09-2014 23:20:00 14.9 C 12.11 g/m*3 14.9 C 0 km/h
282 02-09-2014 23:25:00 14.8 C 12.03 g/m*3 14.8 C 0 km/h
283 02-09-2014 23:30:00 14.7 C 11.96 g/m*3 14.7 C 0 km/h
284 02-09-2014 23:35:00 14.7 C 11.96 g/m*3 14.7 C 0 km/h
285 02-09-2014 23:40:00 14.6 C 11.89 g/m*3 14.6 C 0 km/h
286 02-09-2014 23:45:00 14.5 C 11.82 g/m*3 14.5 C 0 km/h
287 02-09-2014 23:50:00 14.4 C 11.74 g/m*3 14.4 C 0 km/h
288 02-09-2014 23:55:00 14.3 C 11.67 g/m*3 14.3 C 0 km/h
289 03-09-2014 00:00:00 14.4 C 11.87 g/m*3 14.4 C 0 km/h
290 03-09-2014 00:05:00 14.4 C 11.87 g/m*3 14.4 C 0 km/h
291 03-09-2014 00:10:00 14.6 C 12.01 g/m*3 14.6 C 0 km/h
292 03-09-2014 00:15:00 14.6 C 12.01 g/m*3 14.6 C 0 km/h
293 03-09-2014 00:20:00 14.7 C 12.09 g/m*3 14.7 C 0 km/h
294 03-09-2014 00:25:00 14.8 C 12.16 g/m*3 14.8 C 0 km/h
295 03-09-2014 00:30:00 14.8 C 12.29 g/m*3 14.8 C 0 km/h
296 03-09-2014 00:35:00 14.8 C 12.29 g/m*3 14.8 C 0 km/h
297 03-09-2014 00:40:00 14.9 C 12.36 g/m*3 14.9 C 0 km/h
298 03-09-2014 00:45:00 14.9 C 12.36 g/m*3 14.9 C 0 km/h
299 03-09-2014 00:50:00 14.9 C 12.24 g/m*3 14.9 C 0 km/h
300 03-09-2014 00:55:00 14.9 C 12.24 g/m*3 14.9 C 0 km/h
Sensor: Nr:Datum:Temp:Abs-Feuchte:Windchill:Wind:
Aussen-T/F 301 03-09-2014 01:00:00 14.9 C 12.24 g/m*3 14.9 C 0 km/h
302 03-09-2014 01:05:00 14.9 C 12.24 g/m*3 14.9 C 0 km/h
303 03-09-2014 01:10:00 14.9 C 12.24 g/m*3 14.9 C 0 km/h
304 03-09-2014 01:15:00 14.9 C 12.36 g/m*3 14.9 C 0 km/h
305 03-09-2014 01:20:00 14.9 C 12.36 g/m*3 14.9 C 0 km/h
306 03-09-2014 01:25:00 14.9 C 12.36 g/m*3 14.9 C 0 km/h
307 03-09-2014 01:30:00 15 C 12.44 g/m*3 15 C 0 km/h
308 03-09-2014 01:35:00 15 C 12.44 g/m*3 15 C 0 km/h
309 03-09-2014 01:40:00 15.1 C 12.51 g/m*3 15.1 C 0 km/h
310 03-09-2014 01:45:00 15.1 C 12.51 g/m*3 15.1 C 0 km/h
311 03-09-2014 01:50:00 15.1 C 12.51 g/m*3 15.1 C 0 km/h
312 03-09-2014 01:55:00 15.1 C 12.51 g/m*3 15.1 C 0 km/h
313 03-09-2014 02:00:00 15.1 C 12.51 g/m*3 15.1 C 0 km/h
314 03-09-2014 02:05:00 15.1 C 12.51 g/m*3 15.1 C 0 km/h
315 03-09-2014 02:10:00 15.1 C 12.51 g/m*3 15.1 C 0 km/h
316 03-09-2014 02:15:00 15.1 C 12.51 g/m*3 15.1 C 0 km/h
317 03-09-2014 02:20:00 15.1 C 12.51 g/m*3 15.1 C 0 km/h
318 03-09-2014 02:25:00 15.1 C 12.39 g/m*3 15.1 C 0 km/h
319 03-09-2014 02:30:00 15.1 C 12.39 g/m*3 15.1 C 0 km/h
320 03-09-2014 02:35:00 15.1 C 12.39 g/m*3 15.1 C 0 km/h
321 03-09-2014 02:40:00 14.9 C 12.24 g/m*3 14.9 C 0 km/h
322 03-09-2014 02:45:00 14.8 C 12.16 g/m*3 14.8 C 0 km/h
323 03-09-2014 02:50:00 14.8 C 12.16 g/m*3 14.8 C 0 km/h
324 03-09-2014 02:55:00 14.7 C 12.09 g/m*3 14.7 C 0 km/h
325 03-09-2014 03:00:00 14.6 C 12.01 g/m*3 14.6 C 0 km/h
Sensor: Nr:Datum:Temp:Abs-Feuchte:Windchill:Wind:
Aussen-T/F 326 03-09-2014 03:05:00 14.6 C 12.01 g/m*3 14.6 C 0 km/h
327 03-09-2014 03:10:00 14.5 C 11.94 g/m*3 14.5 C 0 km/h
328 03-09-2014 03:15:00 14.4 C 11.87 g/m*3 14.4 C 0 km/h
329 03-09-2014 03:20:00 14.4 C 11.87 g/m*3 14.4 C 0 km/h
330 03-09-2014 03:25:00 14.3 C 11.79 g/m*3 14.3 C 0 km/h
331 03-09-2014 03:30:00 14.2 C 11.72 g/m*3 14.2 C 0 km/h
332 03-09-2014 03:35:00 14.1 C 11.65 g/m*3 14.1 C 0 km/h
333 03-09-2014 03:40:00 14.1 C 11.65 g/m*3 14.1 C 0 km/h
334 03-09-2014 03:45:00 14 C 11.58 g/m*3 14 C 0 km/h
335 03-09-2014 03:50:00 13.9 C 11.51 g/m*3 13.9 C 0 km/h
336 03-09-2014 03:55:00 13.8 C 11.44 g/m*3 13.8 C 0 km/h
337 03-09-2014 04:00:00 13.8 C 11.44 g/m*3 13.8 C 0 km/h
338 03-09-2014 04:05:00 13.7 C 11.37 g/m*3 13.7 C 0 km/h
339 03-09-2014 04:10:00 13.6 C 11.18 g/m*3 13.6 C 0 km/h
340 03-09-2014 04:15:00 13.5 C 11.11 g/m*3 13.5 C 0 km/h
341 03-09-2014 04:20:00 13.4 C 11.16 g/m*3 13.4 C 0 km/h
342 03-09-2014 04:25:00 13.3 C 11.09 g/m*3 13.3 C 0 km/h
343 03-09-2014 04:30:00 13.2 C 10.91 g/m*3 13.2 C 0 km/h
344 03-09-2014 04:35:00 13.2 C 10.91 g/m*3 13.2 C 0 km/h
345 03-09-2014 04:40:00 13.1 C 10.95 g/m*3 13.1 C 0 km/h
346 03-09-2014 04:45:00 12.9 C 10.82 g/m*3 12.9 C 0 km/h
347 03-09-2014 04:50:00 12.9 C 10.82 g/m*3 12.9 C 0 km/h
348 03-09-2014 04:55:00 12.9 C 10.82 g/m*3 12.9 C 0 km/h
349 03-09-2014 05:00:00 12.8 C 10.75 g/m*3 12.8 C 0 km/h
350 03-09-2014 05:05:00 12.7 C 10.69 g/m*3 12.7 C 0 km/h
Sensor: Nr:Datum:Temp:Abs-Feuchte:Windchill:Wind:
Aussen-T/F 351 03-09-2014 05:10:00 12.7 C 10.69 g/m*3 12.7 C 0 km/h
352 03-09-2014 05:15:00 12.6 C 10.62 g/m*3 12.6 C 0 km/h
353 03-09-2014 05:20:00 12.6 C 10.62 g/m*3 12.6 C 0 km/h
354 03-09-2014 05:25:00 12.5 C 10.55 g/m*3 12.5 C 0 km/h
355 03-09-2014 05:30:00 12.4 C 10.49 g/m*3 12.4 C 0 km/h
356 03-09-2014 05:35:00 12.3 C 10.42 g/m*3 12.3 C 0 km/h
357 03-09-2014 05:40:00 12.3 C 10.42 g/m*3 12.3 C 0 km/h
358 03-09-2014 05:45:00 12.3 C 10.42 g/m*3 12.3 C 0 km/h
359 03-09-2014 05:50:00 12.3 C 10.42 g/m*3 12.3 C 0 km/h
360 03-09-2014 05:55:00 12.2 C 10.36 g/m*3 12.2 C 0 km/h
361 03-09-2014 06:00:00 12.2 C 10.36 g/m*3 12.2 C 0 km/h
362 03-09-2014 06:05:00 12.2 C 10.36 g/m*3 12.2 C 0 km/h
363 03-09-2014 06:10:00 12.2 C 10.36 g/m*3 12.2 C 0 km/h
364 03-09-2014 06:15:00 12.1 C 10.29 g/m*3 12.1 C 0 km/h
365 03-09-2014 06:20:00 12.1 C 10.29 g/m*3 12.1 C 0 km/h
366 03-09-2014 06:25:00 12 C 10.23 g/m*3 12 C 0 km/h
367 03-09-2014 06:30:00 11.9 C 10.17 g/m*3 11.9 C 0 km/h
368 03-09-2014 06:35:00 11.9 C 10.17 g/m*3 11.9 C 0 km/h
369 03-09-2014 06:40:00 11.9 C 10.17 g/m*3 11.9 C 0 km/h
370 03-09-2014 06:45:00 11.9 C 10.17 g/m*3 11.9 C 0 km/h
371 03-09-2014 06:50:00 11.9 C 10.17 g/m*3 11.9 C 0 km/h
372 03-09-2014 06:55:00 11.8 C 10.1 g/m*3 11.8 C 0 km/h
373 03-09-2014 07:00:00 11.8 C 10.1 g/m*3 11.8 C 0 km/h
374 03-09-2014 07:05:00 11.8 C 10.1 g/m*3 11.8 C 0 km/h
375 03-09-2014 07:10:00 11.7 C 10.04 g/m*3 11.7 C 0 km/h
Sensor: Nr:Datum:Temp:Abs-Feuchte:Windchill:Wind:
Aussen-T/F 376 03-09-2014 07:15:00 11.7 C 10.04 g/m*3 11.7 C 0 km/h
377 03-09-2014 07:20:00 11.7 C 10.04 g/m*3 11.7 C 0 km/h
378 03-09-2014 07:25:00 11.7 C 10.04 g/m*3 11.7 C 0 km/h
379 03-09-2014 07:30:00 11.7 C 10.04 g/m*3 11.7 C 0 km/h
380 03-09-2014 07:35:00 11.7 C 10.04 g/m*3 11.7 C 0 km/h
381 03-09-2014 07:40:00 11.7 C 10.04 g/m*3 11.7 C 0 km/h
382 03-09-2014 07:45:00 11.7 C 10.15 g/m*3 11.7 C 0 km/h
383 03-09-2014 07:50:00 11.7 C 10.15 g/m*3 11.7 C 0 km/h
384 03-09-2014 07:55:00 11.8 C 10.21 g/m*3 11.8 C 0 km/h
385 03-09-2014 08:00:00 11.9 C 10.27 g/m*3 11.9 C 0 km/h
386 03-09-2014 08:05:00 12.1 C 10.4 g/m*3 12.1 C 0 km/h
387 03-09-2014 08:10:00 12.2 C 10.47 g/m*3 12.2 C 0 km/h
388 03-09-2014 08:15:00 12.2 C 10.47 g/m*3 12.2 C 0 km/h
389 03-09-2014 08:20:00 12.3 C 10.53 g/m*3 12.3 C 0 km/h
390 03-09-2014 08:25:00 12.4 C 10.6 g/m*3 12.4 C 0 km/h
391 03-09-2014 08:30:00 12.6 C 10.73 g/m*3 12.6 C 0 km/h
392 03-09-2014 08:35:00 12.7 C 10.8 g/m*3 12.7 C 0 km/h
393 03-09-2014 08:40:00 12.9 C 10.93 g/m*3 12.9 C 1.6 km/h
394 03-09-2014 08:45:00 13 C 10.89 g/m*3 13 C 1.6 km/h
395 03-09-2014 08:50:00 13.2 C 11.02 g/m*3 13.2 C 0 km/h
396 03-09-2014 08:55:00 13.3 C 10.98 g/m*3 13.3 C 0 km/h
397 03-09-2014 09:00:00 13.4 C 10.93 g/m*3 13.4 C 1.6 km/h
398 03-09-2014 09:05:00 13.4 C 10.69 g/m*3 13.4 C 0 km/h
399 03-09-2014 09:10:00 13.6 C 10.71 g/m*3 13.6 C 1.6 km/h
400 03-09-2014 09:15:00 13.7 C 10.66 g/m*3 13.7 C 1.6 km/h
Sensor: Nr:Datum:Temp:Abs-Feuchte:Windchill:Wind:
Aussen-T/F 401 03-09-2014 09:20:00 13.9 C 11.03 g/m*3 13.9 C 0 km/h
402 03-09-2014 09:25:00 13.9 C 10.91 g/m*3 13.9 C 0 km/h
403 03-09-2014 09:30:00 14 C 10.98 g/m*3 14 C 0 km/h
404 03-09-2014 09:35:00 14 C 10.74 g/m*3 14 C 1.6 km/h
405 03-09-2014 09:40:00 14.1 C 10.68 g/m*3 14.1 C 1.6 km/h
406 03-09-2014 09:45:00 14.1 C 10.44 g/m*3 14.1 C 4.8 km/h
407 03-09-2014 09:50:00 14.2 C 10.62 g/m*3 14.2 C 4.8 km/h
408 03-09-2014 09:55:00 14.2 C 10.62 g/m*3 14.2 C 4.8 km/h
409 03-09-2014 10:00:00 14.4 C 10.88 g/m*3 14.4 C 0 km/h
410 03-09-2014 10:05:00 14.6 C 10.76 g/m*3 14.6 C 1.6 km/h
411 03-09-2014 10:10:00 14.7 C 10.58 g/m*3 14.7 C 9.7 km/h
412 03-09-2014 10:15:00 14.7 C 10.7 g/m*3 14.7 C 1.6 km/h
413 03-09-2014 10:20:00 14.8 C 10.64 g/m*3 14.8 C 0 km/h
414 03-09-2014 10:25:00 14.9 C 10.71 g/m*3 14.9 C 4.8 km/h
415 03-09-2014 10:30:00 15.1 C 10.71 g/m*3 15.1 C 0 km/h
416 03-09-2014 10:35:00 15.2 C 10.77 g/m*3 15.2 C 0 km/h
417 03-09-2014 10:40:00 15.4 C 10.9 g/m*3 15.4 C 6.4 km/h
418 03-09-2014 10:45:00 15.6 C 10.91 g/m*3 15.6 C 9.7 km/h
419 03-09-2014 10:50:00 15.7 C 10.84 g/m*3 15.7 C 6.4 km/h
420 03-09-2014 10:55:00 15.7 C 10.97 g/m*3 15.7 C 1.6 km/h
421 03-09-2014 11:00:00 15.8 C 10.9 g/m*3 15.8 C 1.6 km/h
422 03-09-2014 11:05:00 15.9 C 10.83 g/m*3 15.9 C 4.8 km/h
423 03-09-2014 11:10:00 15.9 C 10.7 g/m*3 15.9 C 3.2 km/h
424 03-09-2014 11:15:00 16 C 10.9 g/m*3 16 C 6.4 km/h
425 03-09-2014 11:20:00 16.1 C 10.83 g/m*3 16.1 C 9.7 km/h
Sensor: Nr:Datum:Temp:Abs-Feuchte:Windchill:Wind:
Aussen-T/F 426 03-09-2014 11:25:00 16.2 C 10.89 g/m*3 16.2 C 9.7 km/h
427 03-09-2014 11:30:00 16.2 C 10.76 g/m*3 16.2 C 12.9 km/h
428 03-09-2014 11:35:00 16.1 C 10.69 g/m*3 16.1 C 12.9 km/h
429 03-09-2014 11:40:00 16.1 C 10.83 g/m*3 16.1 C 6.4 km/h
430 03-09-2014 11:45:00 16 C 10.76 g/m*3 16 C 3.2 km/h
431 03-09-2014 11:50:00 15.9 C 10.7 g/m*3 15.9 C 8.1 km/h
432 03-09-2014 11:55:00 15.9 C 10.56 g/m*3 15.9 C 4.8 km/h
433 03-09-2014 12:00:00 16.1 C 10.83 g/m*3 16.1 C 3.2 km/h
434 03-09-2014 12:05:00 16.1 C 10.83 g/m*3 16.1 C 4.8 km/h
435 03-09-2014 12:10:00 16.2 C 10.89 g/m*3 16.2 C 3.2 km/h
436 03-09-2014 12:15:00 16.4 C 11.03 g/m*3 16.4 C 8.1 km/h
437 03-09-2014 12:20:00 16.6 C 10.88 g/m*3 16.6 C 9.7 km/h
438 03-09-2014 12:25:00 16.7 C 10.94 g/m*3 16.7 C 8.1 km/h
439 03-09-2014 12:30:00 16.8 C 11.01 g/m*3 16.8 C 4.8 km/h
440 03-09-2014 12:35:00 16.9 C 11.36 g/m*3 16.9 C 8.1 km/h
441 03-09-2014 12:40:00 17.2 C 11.28 g/m*3 17.2 C 9.7 km/h
442 03-09-2014 12:45:00 17.2 C 11.13 g/m*3 17.2 C 11.3 km/h
443 03-09-2014 12:50:00 17.3 C 11.34 g/m*3 17.3 C 9.7 km/h
444 03-09-2014 12:55:00 17.3 C 11.2 g/m*3 17.3 C 6.4 km/h
445 03-09-2014 13:00:00 17.2 C 11.13 g/m*3 17.2 C 8.1 km/h
446 03-09-2014 13:05:00 17 C 11 g/m*3 17 C 8.1 km/h
447 03-09-2014 13:10:00 16.8 C 11.01 g/m*3 16.8 C 9.7 km/h
448 03-09-2014 13:15:00 16.8 C 11.15 g/m*3 16.8 C 9.7 km/h
449 03-09-2014 13:20:00 16.8 C 11.15 g/m*3 16.8 C 3.2 km/h
450 03-09-2014 13:25:00 16.8 C 11.15 g/m*3 16.8 C 9.7 km/h
Sensor: Nr:Datum:Temp:Abs-Feuchte:Windchill:Wind:
Aussen-T/F 451 03-09-2014 13:30:00 16.8 C 11.29 g/m*3 16.8 C 4.8 km/h
452 03-09-2014 13:35:00 16.8 C 11.29 g/m*3 16.8 C 9.7 km/h
453 03-09-2014 13:40:00 16.8 C 11.15 g/m*3 16.8 C 11.3 km/h
454 03-09-2014 13:45:00 16.8 C 11.15 g/m*3 16.8 C 8.1 km/h
455 03-09-2014 13:50:00 16.8 C 11.15 g/m*3 16.8 C 6.4 km/h
456 03-09-2014 13:55:00 16.8 C 11.29 g/m*3 16.8 C 4.8 km/h
457 03-09-2014 14:00:00 16.8 C 11.29 g/m*3 16.8 C 9.7 km/h
458 03-09-2014 14:05:00 16.8 C 11.29 g/m*3 16.8 C 4.8 km/h
459 03-09-2014 14:10:00 16.8 C 11.29 g/m*3 16.8 C 9.7 km/h
460 03-09-2014 14:15:00 16.8 C 11.29 g/m*3 16.8 C 4.8 km/h
461 03-09-2014 14:20:00 16.8 C 11.29 g/m*3 16.8 C 6.4 km/h
462 03-09-2014 14:25:00 16.8 C 11.44 g/m*3 16.8 C 6.4 km/h
463 03-09-2014 14:30:00 16.8 C 11.44 g/m*3 16.8 C 6.4 km/h
464 03-09-2014 14:35:00 16.8 C 11.29 g/m*3 16.8 C 6.4 km/h
465 03-09-2014 14:40:00 16.9 C 11.51 g/m*3 16.9 C 4.8 km/h
466 03-09-2014 14:45:00 16.9 C 11.36 g/m*3 16.9 C 8.1 km/h
467 03-09-2014 14:50:00 16.8 C 11.29 g/m*3 16.8 C 8.1 km/h
468 03-09-2014 14:55:00 16.7 C 11.37 g/m*3 16.7 C 11.3 km/h
469 03-09-2014 15:00:00 16.7 C 11.37 g/m*3 16.7 C 14.5 km/h
470 03-09-2014 15:05:00 16.6 C 11.3 g/m*3 16.6 C 6.4 km/h
471 03-09-2014 15:10:00 16.6 C 11.44 g/m*3 16.6 C 8.1 km/h
472 03-09-2014 15:15:00 16.7 C 11.51 g/m*3 16.7 C 8.1 km/h
473 03-09-2014 15:20:00 16.8 C 11.58 g/m*3 16.8 C 8.1 km/h
474 03-09-2014 15:25:00 16.9 C 11.65 g/m*3 16.9 C 4.8 km/h
475 03-09-2014 15:30:00 16.9 C 11.65 g/m*3 16.9 C 1.6 km/h
Sensor: Nr:Datum:Temp:Abs-Feuchte:Windchill:Wind:
Aussen-T/F 476 03-09-2014 15:35:00 16.9 C 11.65 g/m*3 16.9 C 8.1 km/h
477 03-09-2014 15:40:00 16.9 C 11.65 g/m*3 16.9 C 6.4 km/h
478 03-09-2014 15:45:00 17.1 C 11.94 g/m*3 17.1 C 1.6 km/h
479 03-09-2014 15:50:00 17.1 C 11.94 g/m*3 17.1 C 0 km/h
480 03-09-2014 15:55:00 17.1 C 11.65 g/m*3 17.1 C 3.2 km/h
481 03-09-2014 16:00:00 17.1 C 11.65 g/m*3 17.1 C 6.4 km/h
482 03-09-2014 16:05:00 17.2 C 11.86 g/m*3 17.2 C 4.8 km/h
483 03-09-2014 16:10:00 17.2 C 11.86 g/m*3 17.2 C 6.4 km/h
484 03-09-2014 16:15:00 17.2 C 12.01 g/m*3 17.2 C 0 km/h
485 03-09-2014 16:20:00 17.2 C 12.01 g/m*3 17.2 C 0 km/h
486 03-09-2014 16:25:00 17.3 C 12.08 g/m*3 17.3 C 0 km/h
487 03-09-2014 16:30:00 17.3 C 12.08 g/m*3 17.3 C 4.8 km/h
488 03-09-2014 16:35:00 17.3 C 11.93 g/m*3 17.3 C 6.4 km/h
489 03-09-2014 16:40:00 17.4 C 11.86 g/m*3 17.4 C 3.2 km/h
490 03-09-2014 16:45:00 17.4 C 11.86 g/m*3 17.4 C 0 km/h
491 03-09-2014 16:50:00 17.4 C 12.15 g/m*3 17.4 C 0 km/h
492 03-09-2014 16:55:00 17.4 C 12.15 g/m*3 17.4 C 0 km/h
493 03-09-2014 17:00:00 17.3 C 11.93 g/m*3 17.3 C 0 km/h
494 03-09-2014 17:05:00 17.4 C 12.3 g/m*3 17.4 C 0 km/h
495 03-09-2014 17:10:00 17.3 C 12.52 g/m*3 17.3 C 0 km/h
496 03-09-2014 17:15:00 17.1 C 12.52 g/m*3 17.1 C 0 km/h
497 03-09-2014 17:20:00 16.8 C 12.44 g/m*3 16.8 C 0 km/h
498 03-09-2014 17:25:00 16.7 C 12.51 g/m*3 16.7 C 0 km/h
499 03-09-2014 17:30:00 16.6 C 12.57 g/m*3 16.6 C 0 km/h
500 03-09-2014 17:35:00 16.4 C 12.56 g/m*3 16.4 C 0 km/h
Sensor: Nr:Datum:Temp:Abs-Feuchte:Windchill:Wind:
Aussen-T/F 501 03-09-2014 17:40:00 16.4 C 12.56 g/m*3 16.4 C 0 km/h
502 03-09-2014 17:45:00 16.3 C 12.62 g/m*3 16.3 C 0 km/h
503 03-09-2014 17:50:00 16.3 C 12.62 g/m*3 16.3 C 0 km/h
504 03-09-2014 17:55:00 16.3 C 12.76 g/m*3 16.3 C 0 km/h
505 03-09-2014 18:00:00 16.3 C 12.62 g/m*3 16.3 C 0 km/h
506 03-09-2014 18:05:00 16.3 C 12.62 g/m*3 16.3 C 0 km/h
507 03-09-2014 18:10:00 16.3 C 12.76 g/m*3 16.3 C 0 km/h
508 03-09-2014 18:15:00 16.3 C 12.76 g/m*3 16.3 C 0 km/h
509 03-09-2014 18:20:00 16.3 C 12.76 g/m*3 16.3 C 0 km/h
510 03-09-2014 18:25:00 16.3 C 12.76 g/m*3 16.3 C 0 km/h
511 03-09-2014 18:30:00 16.3 C 12.76 g/m*3 16.3 C 0 km/h
512 03-09-2014 18:35:00 16.3 C 12.76 g/m*3 16.3 C 0 km/h
513 03-09-2014 18:40:00 16.3 C 12.76 g/m*3 16.3 C 0 km/h
514 03-09-2014 18:45:00 16.3 C 12.76 g/m*3 16.3 C 0 km/h
515 03-09-2014 18:50:00 16.3 C 12.76 g/m*3 16.3 C 0 km/h
516 03-09-2014 18:55:00 16.3 C 12.9 g/m*3 16.3 C 0 km/h
517 03-09-2014 19:00:00 16.2 C 12.69 g/m*3 16.2 C 0 km/h
518 03-09-2014 19:05:00 16.2 C 12.69 g/m*3 16.2 C 0 km/h
519 03-09-2014 19:10:00 16.2 C 12.69 g/m*3 16.2 C 0 km/h
520 03-09-2014 19:15:00 16.2 C 12.82 g/m*3 16.2 C 0 km/h
521 03-09-2014 19:20:00 16.2 C 12.82 g/m*3 16.2 C 0 km/h
522 03-09-2014 19:25:00 16.2 C 12.82 g/m*3 16.2 C 0 km/h
523 03-09-2014 19:30:00 16.1 C 12.75 g/m*3 16.1 C 0 km/h
524 03-09-2014 19:35:00 16.1 C 12.61 g/m*3 16.1 C 0 km/h
525 03-09-2014 19:40:00 16 C 12.53 g/m*3 16 C 0 km/h
Sensor: Nr:Datum:Temp:Abs-Feuchte:Windchill:Wind:
Aussen-T/F 526 03-09-2014 19:45:00 15.9 C 12.46 g/m*3 15.9 C 0 km/h
527 03-09-2014 19:50:00 15.9 C 12.46 g/m*3 15.9 C 0 km/h
528 03-09-2014 19:55:00 15.8 C 12.38 g/m*3 15.8 C 0 km/h
529 03-09-2014 20:00:00 15.8 C 12.38 g/m*3 15.8 C 0 km/h
530 03-09-2014 20:05:00 15.8 C 12.38 g/m*3 15.8 C 0 km/h
531 03-09-2014 20:10:00 15.7 C 12.31 g/m*3 15.7 C 0 km/h
532 03-09-2014 20:15:00 15.7 C 12.31 g/m*3 15.7 C 0 km/h
533 03-09-2014 20:20:00 15.6 C 12.23 g/m*3 15.6 C 0 km/h
534 03-09-2014 20:25:00 15.6 C 12.23 g/m*3 15.6 C 0 km/h
535 03-09-2014 20:30:00 15.5 C 12.16 g/m*3 15.5 C 0 km/h
536 03-09-2014 20:35:00 15.5 C 12.16 g/m*3 15.5 C 0 km/h
537 03-09-2014 20:40:00 15.5 C 12.16 g/m*3 15.5 C 0 km/h
538 03-09-2014 20:45:00 15.4 C 12.09 g/m*3 15.4 C 0 km/h
539 03-09-2014 20:50:00 15.4 C 12.22 g/m*3 15.4 C 0 km/h
540 03-09-2014 20:55:00 15.4 C 12.09 g/m*3 15.4 C 0 km/h
541 03-09-2014 21:00:00 15.3 C 12.01 g/m*3 15.3 C 0 km/h
542 03-09-2014 21:05:00 15.3 C 12.14 g/m*3 15.3 C 0 km/h
543 03-09-2014 21:10:00 15.3 C 12.14 g/m*3 15.3 C 0 km/h
544 03-09-2014 21:15:00 15.3 C 12.01 g/m*3 15.3 C 0 km/h
545 03-09-2014 21:20:00 15.3 C 12.14 g/m*3 15.3 C 0 km/h
546 03-09-2014 21:25:00 15.3 C 12.14 g/m*3 15.3 C 0 km/h
547 03-09-2014 21:30:00 15.2 C 12.07 g/m*3 15.2 C 0 km/h
548 03-09-2014 21:35:00 15.2 C 12.07 g/m*3 15.2 C 0 km/h
549 03-09-2014 21:40:00 15.2 C 12.07 g/m*3 15.2 C 0 km/h
550 03-09-2014 21:45:00 15.2 C 12.07 g/m*3 15.2 C 0 km/h
Sensor: Nr:Datum:Temp:Abs-Feuchte:Windchill:Wind:
Aussen-T/F 551 03-09-2014 21:50:00 15.2 C 12.07 g/m*3 15.2 C 0 km/h
552 03-09-2014 21:55:00 15.2 C 12.07 g/m*3 15.2 C 0 km/h
553 03-09-2014 22:00:00 15.2 C 12.07 g/m*3 15.2 C 0 km/h
554 03-09-2014 22:05:00 15.2 C 12.07 g/m*3 15.2 C 0 km/h
555 03-09-2014 22:10:00 15.2 C 12.07 g/m*3 15.2 C 0 km/h
556 03-09-2014 22:15:00 15.1 C 12 g/m*3 15.1 C 0 km/h
557 03-09-2014 22:20:00 15.1 C 12 g/m*3 15.1 C 0 km/h
558 03-09-2014 22:25:00 15.2 C 12.07 g/m*3 15.2 C 0 km/h
559 03-09-2014 22:30:00 15.1 C 12 g/m*3 15.1 C 0 km/h
560 03-09-2014 22:35:00 15.2 C 12.07 g/m*3 15.2 C 0 km/h
561 03-09-2014 22:40:00 15.1 C 12 g/m*3 15.1 C 0 km/h
562 03-09-2014 22:45:00 15.2 C 12.07 g/m*3 15.2 C 0 km/h
563 03-09-2014 22:50:00 15.2 C 12.07 g/m*3 15.2 C 0 km/h
564 03-09-2014 22:55:00 15.2 C 12.07 g/m*3 15.2 C 0 km/h
565 03-09-2014 23:00:00 15.2 C 12.07 g/m*3 15.2 C 0 km/h
566 03-09-2014 23:05:00 15.2 C 12.07 g/m*3 15.2 C 0 km/h
567 03-09-2014 23:10:00 15.2 C 12.07 g/m*3 15.2 C 0 km/h
568 03-09-2014 23:15:00 15.2 C 12.07 g/m*3 15.2 C 0 km/h
569 03-09-2014 23:20:00 15.2 C 12.07 g/m*3 15.2 C 0 km/h
570 03-09-2014 23:25:00 15.2 C 12.07 g/m*3 15.2 C 0 km/h
571 03-09-2014 23:30:00 15.2 C 12.07 g/m*3 15.2 C 0 km/h
572 03-09-2014 23:35:00 15.2 C 12.07 g/m*3 15.2 C 0 km/h
573 03-09-2014 23:40:00 15.1 C 12.13 g/m*3 15.1 C 0 km/h
574 03-09-2014 23:45:00 15.2 C 12.2 g/m*3 15.2 C 0 km/h
575 03-09-2014 23:50:00 15.1 C 12.13 g/m*3 15.1 C 0 km/h
Sensor: Nr:Datum:Temp:Abs-Feuchte:Windchill:Wind:
Aussen-T/F 576 03-09-2014 23:55:00 15.1 C 12 g/m*3 15.1 C 0 km/h
577 04-09-2014 00:00:00 15.1 C 12 g/m*3 15.1 C 0 km/h
578 04-09-2014 00:05:00 15.1 C 12.13 g/m*3 15.1 C 0 km/h
579 04-09-2014 00:10:00 15.1 C 12.13 g/m*3 15.1 C 0 km/h
580 04-09-2014 00:15:00 15.1 C 12.13 g/m*3 15.1 C 0 km/h
581 04-09-2014 00:20:00 15.1 C 12.13 g/m*3 15.1 C 0 km/h
582 04-09-2014 00:25:00 15 C 11.93 g/m*3 15 C 0 km/h
583 04-09-2014 00:30:00 15 C 11.93 g/m*3 15 C 0 km/h
584 04-09-2014 00:35:00 15 C 11.93 g/m*3 15 C 0 km/h
585 04-09-2014 00:40:00 14.9 C 11.85 g/m*3 14.9 C 0 km/h
586 04-09-2014 00:45:00 14.9 C 11.85 g/m*3 14.9 C 0 km/h
587 04-09-2014 00:50:00 14.8 C 11.65 g/m*3 14.8 C 0 km/h
588 04-09-2014 00:55:00 14.7 C 11.58 g/m*3 14.7 C 0 km/h
589 04-09-2014 01:00:00 14.7 C 11.58 g/m*3 14.7 C 0 km/h
590 04-09-2014 01:05:00 14.7 C 11.71 g/m*3 14.7 C 0 km/h
591 04-09-2014 01:10:00 14.6 C 11.64 g/m*3 14.6 C 0 km/h
592 04-09-2014 01:15:00 14.6 C 11.51 g/m*3 14.6 C 0 km/h
593 04-09-2014 01:20:00 14.6 C 11.64 g/m*3 14.6 C 0 km/h
594 04-09-2014 01:25:00 14.5 C 11.57 g/m*3 14.5 C 0 km/h
595 04-09-2014 01:30:00 14.5 C 11.57 g/m*3 14.5 C 0 km/h
596 04-09-2014 01:35:00 14.5 C 11.57 g/m*3 14.5 C 0 km/h
597 04-09-2014 01:40:00 14.6 C 11.64 g/m*3 14.6 C 0 km/h
598 04-09-2014 01:45:00 14.5 C 11.57 g/m*3 14.5 C 0 km/h
599 04-09-2014 01:50:00 14.5 C 11.57 g/m*3 14.5 C 0 km/h
600 04-09-2014 01:55:00 14.5 C 11.69 g/m*3 14.5 C 0 km/h
Sensor: Nr:Datum:Temp:Abs-Feuchte:Windchill:Wind:
Aussen-T/F 601 04-09-2014 02:00:00 14.5 C 11.69 g/m*3 14.5 C 0 km/h
602 04-09-2014 02:05:00 14.4 C 11.62 g/m*3 14.4 C 0 km/h
603 04-09-2014 02:10:00 14.4 C 11.62 g/m*3 14.4 C 0 km/h
604 04-09-2014 02:15:00 14.4 C 11.62 g/m*3 14.4 C 0 km/h
605 04-09-2014 02:20:00 14.4 C 11.62 g/m*3 14.4 C 0 km/h
606 04-09-2014 02:25:00 14.4 C 11.62 g/m*3 14.4 C 0 km/h
607 04-09-2014 02:30:00 14.3 C 11.55 g/m*3 14.3 C 0 km/h
608 04-09-2014 02:35:00 14.3 C 11.55 g/m*3 14.3 C 0 km/h
609 04-09-2014 02:40:00 14.2 C 11.48 g/m*3 14.2 C 0 km/h
610 04-09-2014 02:45:00 14.1 C 11.41 g/m*3 14.1 C 0 km/h
611 04-09-2014 02:50:00 13.9 C 11.15 g/m*3 13.9 C 0 km/h
612 04-09-2014 02:55:00 13.8 C 11.2 g/m*3 13.8 C 0 km/h
613 04-09-2014 03:00:00 13.7 C 11.13 g/m*3 13.7 C 0 km/h
614 04-09-2014 03:05:00 13.7 C 11.13 g/m*3 13.7 C 0 km/h
615 04-09-2014 03:10:00 13.6 C 11.06 g/m*3 13.6 C 0 km/h
616 04-09-2014 03:15:00 13.6 C 11.06 g/m*3 13.6 C 0 km/h
617 04-09-2014 03:20:00 13.4 C 10.93 g/m*3 13.4 C 0 km/h
618 04-09-2014 03:25:00 13.4 C 10.93 g/m*3 13.4 C 0 km/h
619 04-09-2014 03:30:00 13.4 C 11.04 g/m*3 13.4 C 0 km/h
620 04-09-2014 03:35:00 13.4 C 11.04 g/m*3 13.4 C 0 km/h
621 04-09-2014 03:40:00 13.3 C 10.98 g/m*3 13.3 C 0 km/h
622 04-09-2014 03:45:00 13.3 C 10.98 g/m*3 13.3 C 0 km/h
623 04-09-2014 03:50:00 13.3 C 10.98 g/m*3 13.3 C 0 km/h
624 04-09-2014 03:55:00 13.3 C 10.98 g/m*3 13.3 C 0 km/h
625 04-09-2014 04:00:00 13.3 C 11.09 g/m*3 13.3 C 0 km/h
Sensor: Nr:Datum:Temp:Abs-Feuchte:Windchill:Wind:
Aussen-T/F 626 04-09-2014 04:05:00 13.3 C 11.09 g/m*3 13.3 C 0 km/h
627 04-09-2014 04:10:00 13.3 C 11.09 g/m*3 13.3 C 0 km/h
628 04-09-2014 04:15:00 13.3 C 11.09 g/m*3 13.3 C 0 km/h
629 04-09-2014 04:20:00 13.3 C 11.09 g/m*3 13.3 C 0 km/h
630 04-09-2014 04:25:00 13.4 C 11.16 g/m*3 13.4 C 0 km/h
631 04-09-2014 04:30:00 13.3 C 11.09 g/m*3 13.3 C 0 km/h
632 04-09-2014 04:35:00 13.3 C 11.09 g/m*3 13.3 C 0 km/h
633 04-09-2014 04:40:00 13.4 C 11.16 g/m*3 13.4 C 0 km/h
634 04-09-2014 04:45:00 13.4 C 11.16 g/m*3 13.4 C 0 km/h
635 04-09-2014 04:50:00 13.4 C 11.16 g/m*3 13.4 C 0 km/h
636 04-09-2014 04:55:00 13.4 C 11.16 g/m*3 13.4 C 0 km/h
637 04-09-2014 05:00:00 13.5 C 11.23 g/m*3 13.5 C 0 km/h
638 04-09-2014 05:05:00 13.6 C 11.3 g/m*3 13.6 C 0 km/h
639 04-09-2014 05:10:00 13.6 C 11.3 g/m*3 13.6 C 0 km/h
640 04-09-2014 05:15:00 13.6 C 11.3 g/m*3 13.6 C 0 km/h
641 04-09-2014 05:20:00 13.6 C 11.3 g/m*3 13.6 C 0 km/h
642 04-09-2014 05:25:00 13.6 C 11.3 g/m*3 13.6 C 0 km/h
643 04-09-2014 05:30:00 13.6 C 11.3 g/m*3 13.6 C 0 km/h
644 04-09-2014 05:35:00 13.6 C 11.3 g/m*3 13.6 C 0 km/h
645 04-09-2014 05:40:00 13.7 C 11.37 g/m*3 13.7 C 0 km/h
646 04-09-2014 05:45:00 13.7 C 11.37 g/m*3 13.7 C 0 km/h
647 04-09-2014 05:50:00 13.8 C 11.56 g/m*3 13.8 C 0 km/h
648 04-09-2014 05:55:00 13.8 C 11.56 g/m*3 13.8 C 0 km/h
649 04-09-2014 06:00:00 13.8 C 11.44 g/m*3 13.8 C 0 km/h
650 04-09-2014 06:05:00 13.8 C 11.44 g/m*3 13.8 C 0 km/h
Sensor: Nr:Datum:Temp:Abs-Feuchte:Windchill:Wind:
Aussen-T/F 651 04-09-2014 06:10:00 13.8 C 11.44 g/m*3 13.8 C 0 km/h
652 04-09-2014 06:15:00 13.7 C 11.37 g/m*3 13.7 C 0 km/h
653 04-09-2014 06:20:00 13.8 C 11.44 g/m*3 13.8 C 0 km/h
654 04-09-2014 06:25:00 13.8 C 11.44 g/m*3 13.8 C 0 km/h
655 04-09-2014 06:30:00 13.9 C 11.51 g/m*3 13.9 C 0 km/h
656 04-09-2014 06:35:00 13.9 C 11.51 g/m*3 13.9 C 0 km/h
657 04-09-2014 06:40:00 13.9 C 11.51 g/m*3 13.9 C 0 km/h
658 04-09-2014 06:45:00 14 C 11.58 g/m*3 14 C 0 km/h
659 04-09-2014 06:50:00 14.1 C 11.65 g/m*3 14.1 C 0 km/h
660 04-09-2014 06:55:00 14.1 C 11.65 g/m*3 14.1 C 0 km/h
661 04-09-2014 07:00:00 14.1 C 11.65 g/m*3 14.1 C 0 km/h
662 04-09-2014 07:05:00 14.1 C 11.65 g/m*3 14.1 C 0 km/h
663 04-09-2014 07:10:00 14.1 C 11.77 g/m*3 14.1 C 0 km/h
664 04-09-2014 07:15:00 14.2 C 11.84 g/m*3 14.2 C 0 km/h
665 04-09-2014 07:20:00 14.3 C 11.92 g/m*3 14.3 C 0 km/h
666 04-09-2014 07:25:00 14.3 C 11.92 g/m*3 14.3 C 0 km/h
667 04-09-2014 07:30:00 14.3 C 11.79 g/m*3 14.3 C 0 km/h
668 04-09-2014 07:35:00 14.3 C 11.79 g/m*3 14.3 C 0 km/h
669 04-09-2014 07:40:00 14.4 C 11.99 g/m*3 14.4 C 0 km/h
670 04-09-2014 07:45:00 14.5 C 12.06 g/m*3 14.5 C 0 km/h
671 04-09-2014 07:50:00 14.6 C 12.14 g/m*3 14.6 C 0 km/h
672 04-09-2014 07:55:00 14.6 C 12.14 g/m*3 14.6 C 0 km/h
673 04-09-2014 08:00:00 14.7 C 12.21 g/m*3 14.7 C 0 km/h
674 04-09-2014 08:05:00 14.8 C 12.29 g/m*3 14.8 C 0 km/h
675 04-09-2014 08:10:00 14.8 C 12.16 g/m*3 14.8 C 0 km/h
Sensor: Nr:Datum:Temp:Abs-Feuchte:Windchill:Wind:
Aussen-T/F 676 04-09-2014 08:15:00 14.8 C 12.16 g/m*3 14.8 C 0 km/h
677 04-09-2014 08:20:00 14.9 C 12.24 g/m*3 14.9 C 0 km/h
678 04-09-2014 08:25:00 14.9 C 12.24 g/m*3 14.9 C 0 km/h
679 04-09-2014 08:30:00 15 C 12.31 g/m*3 15 C 0 km/h
680 04-09-2014 08:35:00 15.1 C 12.39 g/m*3 15.1 C 0 km/h
681 04-09-2014 08:40:00 15.2 C 12.46 g/m*3 15.2 C 0 km/h
682 04-09-2014 08:45:00 15.3 C 12.54 g/m*3 15.3 C 0 km/h
683 04-09-2014 08:50:00 15.3 C 12.54 g/m*3 15.3 C 0 km/h
684 04-09-2014 08:55:00 15.4 C 12.48 g/m*3 15.4 C 0 km/h
685 04-09-2014 09:00:00 15.4 C 12.61 g/m*3 15.4 C 0 km/h
686 04-09-2014 09:05:00 15.6 C 12.63 g/m*3 15.6 C 0 km/h
687 04-09-2014 09:10:00 15.7 C 12.71 g/m*3 15.7 C 0 km/h
688 04-09-2014 09:15:00 15.7 C 12.71 g/m*3 15.7 C 0 km/h
689 04-09-2014 09:20:00 15.8 C 12.79 g/m*3 15.8 C 0 km/h
690 04-09-2014 09:25:00 15.9 C 12.73 g/m*3 15.9 C 0 km/h
691 04-09-2014 09:30:00 16.1 C 12.88 g/m*3 16.1 C 0 km/h
692 04-09-2014 09:35:00 16.2 C 12.82 g/m*3 16.2 C 0 km/h
693 04-09-2014 09:40:00 16.3 C 12.9 g/m*3 16.3 C 0 km/h
694 04-09-2014 09:45:00 16.4 C 12.84 g/m*3 16.4 C 0 km/h
695 04-09-2014 09:50:00 16.7 C 12.93 g/m*3 16.7 C 0 km/h
696 04-09-2014 09:55:00 16.9 C 13.09 g/m*3 16.9 C 0 km/h
697 04-09-2014 10:00:00 17.1 C 13.1 g/m*3 17.1 C 0 km/h
698 04-09-2014 10:05:00 17.3 C 13.11 g/m*3 17.3 C 0 km/h
699 04-09-2014 10:10:00 17.4 C 13.04 g/m*3 17.4 C 0 km/h
700 04-09-2014 10:15:00 17.7 C 13.13 g/m*3 17.7 C 0 km/h
Sensor: Nr:Datum:Temp:Abs-Feuchte:Windchill:Wind:
Aussen-T/F 701 04-09-2014 10:20:00 17.9 C 13.13 g/m*3 17.9 C 0 km/h
702 04-09-2014 10:25:00 18.1 C 13.29 g/m*3 18.1 C 0 km/h
703 04-09-2014 10:30:00 18.2 C 13.21 g/m*3 18.2 C 0 km/h
704 04-09-2014 10:35:00 18.4 C 13.05 g/m*3 18.4 C 0 km/h
705 04-09-2014 10:40:00 18.5 C 13.45 g/m*3 18.5 C 0 km/h
706 04-09-2014 10:45:00 18.6 C 13.21 g/m*3 18.6 C 0 km/h
707 04-09-2014 10:50:00 18.7 C 13.13 g/m*3 18.7 C 0 km/h
708 04-09-2014 10:55:00 18.9 C 13.45 g/m*3 18.9 C 0 km/h
709 04-09-2014 11:00:00 19.1 C 13.44 g/m*3 19.1 C 0 km/h
710 04-09-2014 11:05:00 19.2 C 13.36 g/m*3 19.2 C 0 km/h
711 04-09-2014 11:10:00 19.3 C 13.27 g/m*3 19.3 C 8.1 km/h
712 04-09-2014 11:15:00 19.3 C 13.1 g/m*3 19.3 C 9.7 km/h
713 04-09-2014 11:20:00 19.3 C 12.94 g/m*3 19.3 C 3.2 km/h
714 04-09-2014 11:25:00 19.3 C 13.1 g/m*3 19.3 C 0 km/h
715 04-09-2014 11:30:00 19.3 C 13.1 g/m*3 19.3 C 9.7 km/h
716 04-09-2014 11:35:00 19.3 C 12.94 g/m*3 19.3 C 6.4 km/h
717 04-09-2014 11:40:00 19.4 C 13.18 g/m*3 19.4 C 6.4 km/h
718 04-09-2014 11:45:00 19.7 C 13.25 g/m*3 19.7 C 8.1 km/h
719 04-09-2014 11:50:00 19.7 C 13.08 g/m*3 19.7 C 9.7 km/h
720 04-09-2014 11:55:00 19.7 C 13.08 g/m*3 19.7 C 11.3 km/h
721 04-09-2014 12:00:00 19.8 C 13.15 g/m*3 19.8 C 8.1 km/h
722 04-09-2014 12:05:00 19.7 C 13.25 g/m*3 19.7 C 8.1 km/h
723 04-09-2014 12:10:00 19.7 C 13.25 g/m*3 19.7 C 6.4 km/h
724 04-09-2014 12:15:00 19.8 C 13.32 g/m*3 19.8 C 6.4 km/h
725 04-09-2014 12:20:00 19.8 C 13.32 g/m*3 19.8 C 6.4 km/h
Sensor: Nr:Datum:Temp:Abs-Feuchte:Windchill:Wind:
Aussen-T/F 726 04-09-2014 12:25:00 19.9 C 13.4 g/m*3 19.9 C 8.1 km/h
727 04-09-2014 12:30:00 19.9 C 13.57 g/m*3 19.9 C 8.1 km/h
728 04-09-2014 12:35:00 19.9 C 13.06 g/m*3 19.9 C 8.1 km/h
729 04-09-2014 12:40:00 19.9 C 13.23 g/m*3 19.9 C 9.7 km/h
730 04-09-2014 12:45:00 19.8 C 13.32 g/m*3 19.8 C 6.4 km/h
731 04-09-2014 12:50:00 19.8 C 13.15 g/m*3 19.8 C 12.9 km/h
732 04-09-2014 12:55:00 19.8 C 13.15 g/m*3 19.8 C 12.9 km/h
733 04-09-2014 13:00:00 19.9 C 13.23 g/m*3 19.9 C 9.7 km/h
734 04-09-2014 13:05:00 19.8 C 12.98 g/m*3 19.8 C 12.9 km/h
735 04-09-2014 13:10:00 19.7 C 13.08 g/m*3 19.7 C 9.7 km/h
736 04-09-2014 13:15:00 19.6 C 13 g/m*3 19.6 C 6.4 km/h
737 04-09-2014 13:20:00 19.6 C 13.17 g/m*3 19.6 C 6.4 km/h
738 04-09-2014 13:25:00 19.6 C 13 g/m*3 19.6 C 6.4 km/h
739 04-09-2014 13:30:00 19.7 C 13.25 g/m*3 19.7 C 9.7 km/h
740 04-09-2014 13:35:00 19.7 C 13.25 g/m*3 19.7 C 8.1 km/h
741 04-09-2014 13:40:00 19.6 C 13.34 g/m*3 19.6 C 3.2 km/h
742 04-09-2014 13:45:00 19.6 C 13.34 g/m*3 19.6 C 4.8 km/h
743 04-09-2014 13:50:00 19.5 C 13.09 g/m*3 19.5 C 4.8 km/h
744 04-09-2014 13:55:00 19.5 C 13.43 g/m*3 19.5 C 0 km/h
745 04-09-2014 14:00:00 19.5 C 13.26 g/m*3 19.5 C 8.1 km/h
746 04-09-2014 14:05:00 19.6 C 13.34 g/m*3 19.6 C 8.1 km/h
747 04-09-2014 14:10:00 19.8 C 13.32 g/m*3 19.8 C 9.7 km/h
748 04-09-2014 14:15:00 19.8 C 13.32 g/m*3 19.8 C 9.7 km/h
749 04-09-2014 14:20:00 19.9 C 13.4 g/m*3 19.9 C 8.1 km/h
750 04-09-2014 14:25:00 20.1 C 13.56 g/m*3 20.1 C 11.3 km/h
Sensor: Nr:Datum:Temp:Abs-Feuchte:Windchill:Wind:
Aussen-T/F 751 04-09-2014 14:30:00 20.2 C 13.64 g/m*3 20.2 C 8.1 km/h
752 04-09-2014 14:35:00 20.2 C 13.46 g/m*3 20.2 C 6.4 km/h
753 04-09-2014 14:40:00 20.2 C 13.64 g/m*3 20.2 C 8.1 km/h
754 04-09-2014 14:45:00 20.3 C 13.72 g/m*3 20.3 C 8.1 km/h
755 04-09-2014 14:50:00 20.4 C 13.62 g/m*3 20.4 C 6.4 km/h
756 04-09-2014 14:55:00 20.3 C 13.54 g/m*3 20.3 C 6.4 km/h
757 04-09-2014 15:00:00 20.2 C 13.64 g/m*3 20.2 C 6.4 km/h
758 04-09-2014 15:05:00 20.2 C 13.64 g/m*3 20.2 C 6.4 km/h
759 04-09-2014 15:10:00 20.2 C 13.46 g/m*3 20.2 C 6.4 km/h
760 04-09-2014 15:15:00 20.2 C 13.64 g/m*3 20.2 C 0 km/h
761 04-09-2014 15:20:00 20.1 C 13.39 g/m*3 20.1 C 11.3 km/h
762 04-09-2014 15:25:00 20.1 C 13.56 g/m*3 20.1 C 0 km/h
763 04-09-2014 15:30:00 20.1 C 13.39 g/m*3 20.1 C 0 km/h
764 04-09-2014 15:35:00 20.1 C 13.73 g/m*3 20.1 C 4.8 km/h
765 04-09-2014 15:40:00 20.2 C 13.64 g/m*3 20.2 C 0 km/h
766 04-09-2014 15:45:00 20.1 C 13.39 g/m*3 20.1 C 4.8 km/h
767 04-09-2014 15:50:00 20.1 C 13.39 g/m*3 20.1 C 8.1 km/h
768 04-09-2014 15:55:00 20.1 C 13.21 g/m*3 20.1 C 9.7 km/h
769 04-09-2014 16:00:00 20.1 C 13.56 g/m*3 20.1 C 0 km/h
770 04-09-2014 16:05:00 19.9 C 13.57 g/m*3 19.9 C 6.4 km/h
771 04-09-2014 16:10:00 19.9 C 13.23 g/m*3 19.9 C 8.1 km/h
772 04-09-2014 16:15:00 19.9 C 13.4 g/m*3 19.9 C 0 km/h
773 04-09-2014 16:20:00 19.9 C 13.57 g/m*3 19.9 C 0 km/h
774 04-09-2014 16:25:00 19.8 C 13.32 g/m*3 19.8 C 0 km/h
775 04-09-2014 16:30:00 19.7 C 13.75 g/m*3 19.7 C 0 km/h
Sensor: Nr:Datum:Temp:Abs-Feuchte:Windchill:Wind:
Aussen-T/F 776 04-09-2014 16:35:00 19.4 C 13.51 g/m*3 19.4 C 0 km/h
777 04-09-2014 16:40:00 19.3 C 13.6 g/m*3 19.3 C 0 km/h
778 04-09-2014 16:45:00 19.3 C 13.27 g/m*3 19.3 C 8.1 km/h
779 04-09-2014 16:50:00 19.4 C 13.35 g/m*3 19.4 C 0 km/h
780 04-09-2014 16:55:00 19.6 C 13.67 g/m*3 19.6 C 4.8 km/h
781 04-09-2014 17:00:00 19.7 C 14.09 g/m*3 19.7 C 0 km/h
782 04-09-2014 17:05:00 19.4 C 14.18 g/m*3 19.4 C 0 km/h
783 04-09-2014 17:10:00 19.2 C 14.18 g/m*3 19.2 C 0 km/h
784 04-09-2014 17:15:00 19 C 14.18 g/m*3 19 C 0 km/h
785 04-09-2014 17:20:00 18.9 C 13.45 g/m*3 18.9 C 0 km/h
786 04-09-2014 17:25:00 19.2 C 13.85 g/m*3 19.2 C 0 km/h
787 04-09-2014 17:30:00 19.3 C 14.1 g/m*3 19.3 C 0 km/h
788 04-09-2014 17:35:00 19.2 C 14.18 g/m*3 19.2 C 0 km/h
789 04-09-2014 17:40:00 18.9 C 14.09 g/m*3 18.9 C 0 km/h
790 04-09-2014 17:45:00 18.7 C 14.09 g/m*3 18.7 C 0 km/h
791 04-09-2014 17:50:00 18.6 C 14.17 g/m*3 18.6 C 0 km/h
792 04-09-2014 17:55:00 18.5 C 14.08 g/m*3 18.5 C 0 km/h
793 04-09-2014 18:00:00 18.4 C 14.16 g/m*3 18.4 C 0 km/h
794 04-09-2014 18:05:00 18.3 C 14.07 g/m*3 18.3 C 0 km/h
795 04-09-2014 18:10:00 18.2 C 13.99 g/m*3 18.2 C 0 km/h
796 04-09-2014 18:15:00 18 C 13.98 g/m*3 18 C 0 km/h
797 04-09-2014 18:20:00 18 C 13.98 g/m*3 18 C 0 km/h
798 04-09-2014 18:25:00 17.9 C 13.89 g/m*3 17.9 C 0 km/h
799 04-09-2014 18:30:00 17.8 C 13.96 g/m*3 17.8 C 0 km/h
800 04-09-2014 18:35:00 17.8 C 13.96 g/m*3 17.8 C 0 km/h
Sensor: Nr:Datum:Temp:Abs-Feuchte:Windchill:Wind:
Aussen-T/F 801 04-09-2014 18:40:00 17.7 C 13.88 g/m*3 17.7 C 0 km/h
802 04-09-2014 18:45:00 17.7 C 13.88 g/m*3 17.7 C 0 km/h
803 04-09-2014 18:50:00 17.6 C 13.8 g/m*3 17.6 C 0 km/h
804 04-09-2014 18:55:00 17.5 C 13.72 g/m*3 17.5 C 0 km/h
805 04-09-2014 19:00:00 17.5 C 13.87 g/m*3 17.5 C 0 km/h
806 04-09-2014 19:05:00 17.4 C 13.78 g/m*3 17.4 C 0 km/h
807 04-09-2014 19:10:00 17.4 C 13.78 g/m*3 17.4 C 0 km/h
808 04-09-2014 19:15:00 17.4 C 13.78 g/m*3 17.4 C 0 km/h
809 04-09-2014 19:20:00 17.3 C 13.7 g/m*3 17.3 C 0 km/h
810 04-09-2014 19:25:00 17.3 C 13.7 g/m*3 17.3 C 0 km/h
811 04-09-2014 19:30:00 17.3 C 13.7 g/m*3 17.3 C 0 km/h
812 04-09-2014 19:35:00 17.3 C 13.7 g/m*3 17.3 C 0 km/h
813 04-09-2014 19:40:00 17.2 C 13.62 g/m*3 17.2 C 0 km/h
814 04-09-2014 19:45:00 17.2 C 13.62 g/m*3 17.2 C 0 km/h
815 04-09-2014 19:50:00 17.2 C 13.62 g/m*3 17.2 C 0 km/h
816 04-09-2014 19:55:00 17.2 C 13.62 g/m*3 17.2 C 0 km/h
817 04-09-2014 20:00:00 17.2 C 13.62 g/m*3 17.2 C 0 km/h
818 04-09-2014 20:05:00 17.2 C 13.62 g/m*3 17.2 C 0 km/h
819 04-09-2014 20:10:00 17.1 C 13.54 g/m*3 17.1 C 0 km/h
820 04-09-2014 20:15:00 17.1 C 13.68 g/m*3 17.1 C 0 km/h
821 04-09-2014 20:20:00 17.1 C 13.68 g/m*3 17.1 C 0 km/h
822 04-09-2014 20:25:00 17.1 C 13.68 g/m*3 17.1 C 0 km/h
823 04-09-2014 20:30:00 17 C 13.6 g/m*3 17 C 0 km/h
824 04-09-2014 20:35:00 17 C 13.6 g/m*3 17 C 0 km/h
825 04-09-2014 20:40:00 17 C 13.6 g/m*3 17 C 0 km/h
Sensor: Nr:Datum:Temp:Abs-Feuchte:Windchill:Wind:
Aussen-T/F 826 04-09-2014 20:45:00 16.9 C 13.52 g/m*3 16.9 C 0 km/h
827 04-09-2014 20:50:00 16.9 C 13.52 g/m*3 16.9 C 0 km/h
828 04-09-2014 20:55:00 16.9 C 13.52 g/m*3 16.9 C 0 km/h
829 04-09-2014 21:00:00 16.9 C 13.52 g/m*3 16.9 C 0 km/h
830 04-09-2014 21:05:00 16.9 C 13.52 g/m*3 16.9 C 0 km/h
831 04-09-2014 21:10:00 16.9 C 13.52 g/m*3 16.9 C 0 km/h
832 04-09-2014 21:15:00 16.9 C 13.52 g/m*3 16.9 C 0 km/h
833 04-09-2014 21:20:00 16.9 C 13.66 g/m*3 16.9 C 0 km/h
834 04-09-2014 21:25:00 16.9 C 13.66 g/m*3 16.9 C 0 km/h
835 04-09-2014 21:30:00 16.8 C 13.58 g/m*3 16.8 C 0 km/h
836 04-09-2014 21:35:00 16.8 C 13.58 g/m*3 16.8 C 0 km/h
837 04-09-2014 21:40:00 16.8 C 13.58 g/m*3 16.8 C 0 km/h
838 04-09-2014 21:45:00 16.8 C 13.58 g/m*3 16.8 C 0 km/h
839 04-09-2014 21:50:00 16.8 C 13.58 g/m*3 16.8 C 0 km/h
840 04-09-2014 21:55:00 16.8 C 13.58 g/m*3 16.8 C 0 km/h
841 04-09-2014 22:00:00 16.8 C 13.58 g/m*3 16.8 C 0 km/h
842 04-09-2014 22:05:00 16.8 C 13.58 g/m*3 16.8 C 0 km/h
843 04-09-2014 22:10:00 16.8 C 13.58 g/m*3 16.8 C 0 km/h
844 04-09-2014 22:15:00 16.8 C 13.58 g/m*3 16.8 C 0 km/h
845 04-09-2014 22:20:00 16.8 C 13.58 g/m*3 16.8 C 0 km/h
846 04-09-2014 22:25:00 16.8 C 13.58 g/m*3 16.8 C 0 km/h
847 04-09-2014 22:30:00 16.8 C 13.58 g/m*3 16.8 C 0 km/h
848 04-09-2014 22:35:00 16.8 C 13.58 g/m*3 16.8 C 0 km/h
849 04-09-2014 22:40:00 16.8 C 13.58 g/m*3 16.8 C 0 km/h
850 04-09-2014 22:45:00 16.8 C 13.58 g/m*3 16.8 C 0 km/h
Sensor: Nr:Datum:Temp:Abs-Feuchte:Windchill:Wind:
Aussen-T/F 851 04-09-2014 22:50:00 16.8 C 13.58 g/m*3 16.8 C 0 km/h
852 04-09-2014 22:55:00 16.8 C 13.58 g/m*3 16.8 C 0 km/h
853 04-09-2014 23:00:00 16.8 C 13.58 g/m*3 16.8 C 0 km/h
854 04-09-2014 23:05:00 16.8 C 13.58 g/m*3 16.8 C 0 km/h
855 04-09-2014 23:10:00 16.7 C 13.5 g/m*3 16.7 C 0 km/h
856 04-09-2014 23:15:00 16.7 C 13.5 g/m*3 16.7 C 0 km/h
857 04-09-2014 23:20:00 16.7 C 13.5 g/m*3 16.7 C 0 km/h
858 04-09-2014 23:25:00 16.6 C 13.42 g/m*3 16.6 C 0 km/h
859 04-09-2014 23:30:00 16.4 C 13.26 g/m*3 16.4 C 0 km/h
860 04-09-2014 23:35:00 16.4 C 13.26 g/m*3 16.4 C 0 km/h
861 04-09-2014 23:40:00 16.3 C 13.18 g/m*3 16.3 C 0 km/h
862 04-09-2014 23:45:00 16.3 C 13.18 g/m*3 16.3 C 0 km/h
863 04-09-2014 23:50:00 16.3 C 13.18 g/m*3 16.3 C 0 km/h
864 04-09-2014 23:55:00 16.3 C 13.18 g/m*3 16.3 C 0 km/h
865 05-09-2014 00:00:00 16.2 C 13.24 g/m*3 16.2 C 0 km/h
866 05-09-2014 00:05:00 16.2 C 13.24 g/m*3 16.2 C 0 km/h
867 05-09-2014 00:10:00 16.1 C 13.02 g/m*3 16.1 C 0 km/h
868 05-09-2014 00:15:00 16.1 C 13.16 g/m*3 16.1 C 0 km/h
869 05-09-2014 00:20:00 16.1 C 13.16 g/m*3 16.1 C 0 km/h
870 05-09-2014 00:25:00 16.1 C 13.16 g/m*3 16.1 C 0 km/h
871 05-09-2014 00:30:00 16.1 C 13.16 g/m*3 16.1 C 0 km/h
872 05-09-2014 00:35:00 16.1 C 13.16 g/m*3 16.1 C 0 km/h
873 05-09-2014 00:40:00 15.9 C 13 g/m*3 15.9 C 0 km/h
874 05-09-2014 00:45:00 15.8 C 12.92 g/m*3 15.8 C 0 km/h
875 05-09-2014 00:50:00 15.8 C 12.92 g/m*3 15.8 C 0 km/h
Sensor: Nr:Datum:Temp:Abs-Feuchte:Windchill:Wind:
Aussen-T/F 876 05-09-2014 00:55:00 15.7 C 12.84 g/m*3 15.7 C 0 km/h
877 05-09-2014 01:00:00 15.7 C 12.84 g/m*3 15.7 C 0 km/h
878 05-09-2014 01:05:00 15.6 C 12.77 g/m*3 15.6 C 0 km/h
879 05-09-2014 01:10:00 15.6 C 12.77 g/m*3 15.6 C 0 km/h
880 05-09-2014 01:15:00 15.6 C 12.77 g/m*3 15.6 C 0 km/h
881 05-09-2014 01:20:00 15.6 C 12.77 g/m*3 15.6 C 0 km/h
882 05-09-2014 01:25:00 15.7 C 12.98 g/m*3 15.7 C 0 km/h
883 05-09-2014 01:30:00 15.7 C 12.98 g/m*3 15.7 C 0 km/h
884 05-09-2014 01:35:00 15.7 C 12.98 g/m*3 15.7 C 0 km/h
885 05-09-2014 01:40:00 15.8 C 13.06 g/m*3 15.8 C 0 km/h
886 05-09-2014 01:45:00 15.8 C 13.06 g/m*3 15.8 C 0 km/h
887 05-09-2014 01:50:00 15.8 C 13.06 g/m*3 15.8 C 0 km/h
888 05-09-2014 01:55:00 15.8 C 13.06 g/m*3 15.8 C 0 km/h
889 05-09-2014 02:00:00 15.8 C 13.06 g/m*3 15.8 C 0 km/h
890 05-09-2014 02:05:00 15.8 C 13.06 g/m*3 15.8 C 0 km/h
891 05-09-2014 02:10:00 15.9 C 13.14 g/m*3 15.9 C 0 km/h
892 05-09-2014 02:15:00 15.9 C 13.14 g/m*3 15.9 C 0 km/h
893 05-09-2014 02:20:00 15.9 C 13.14 g/m*3 15.9 C 0 km/h
894 05-09-2014 02:25:00 15.9 C 13.14 g/m*3 15.9 C 0 km/h
895 05-09-2014 02:30:00 15.9 C 13.14 g/m*3 15.9 C 0 km/h
896 05-09-2014 02:35:00 15.9 C 13.14 g/m*3 15.9 C 0 km/h
897 05-09-2014 02:40:00 15.9 C 13.14 g/m*3 15.9 C 0 km/h
898 05-09-2014 02:45:00 15.9 C 13.14 g/m*3 15.9 C 0 km/h
899 05-09-2014 02:50:00 15.9 C 13.14 g/m*3 15.9 C 0 km/h
900 05-09-2014 02:55:00 15.9 C 13.14 g/m*3 15.9 C 0 km/h
Sensor: Nr:Datum:Temp:Abs-Feuchte:Windchill:Wind:
Aussen-T/F 901 05-09-2014 03:00:00 15.9 C 13.14 g/m*3 15.9 C 0 km/h
902 05-09-2014 03:05:00 15.9 C 13.14 g/m*3 15.9 C 0 km/h
903 05-09-2014 03:10:00 15.9 C 13.14 g/m*3 15.9 C 0 km/h
904 05-09-2014 03:15:00 15.9 C 13.14 g/m*3 15.9 C 0 km/h
905 05-09-2014 03:20:00 16 C 13.22 g/m*3 16 C 0 km/h
906 05-09-2014 03:25:00 16 C 13.22 g/m*3 16 C 0 km/h
907 05-09-2014 03:30:00 16 C 13.22 g/m*3 16 C 0 km/h
908 05-09-2014 03:35:00 16.1 C 13.3 g/m*3 16.1 C 0 km/h
909 05-09-2014 03:40:00 16.1 C 13.3 g/m*3 16.1 C 0 km/h
910 05-09-2014 03:45:00 16.1 C 13.3 g/m*3 16.1 C 0 km/h
911 05-09-2014 03:50:00 16.1 C 13.3 g/m*3 16.1 C 0 km/h
912 05-09-2014 03:55:00 16 C 13.22 g/m*3 16 C 0 km/h
913 05-09-2014 04:00:00 16 C 13.22 g/m*3 16 C 0 km/h
914 05-09-2014 04:05:00 16 C 13.22 g/m*3 16 C 0 km/h
915 05-09-2014 04:10:00 15.9 C 13.14 g/m*3 15.9 C 0 km/h
916 05-09-2014 04:15:00 15.9 C 13.14 g/m*3 15.9 C 0 km/h
917 05-09-2014 04:20:00 16 C 13.22 g/m*3 16 C 0 km/h
918 05-09-2014 04:25:00 16 C 13.22 g/m*3 16 C 0 km/h
919 05-09-2014 04:30:00 15.9 C 13.14 g/m*3 15.9 C 0 km/h
920 05-09-2014 04:35:00 15.9 C 13.14 g/m*3 15.9 C 0 km/h
921 05-09-2014 04:40:00 15.9 C 13.14 g/m*3 15.9 C 0 km/h
922 05-09-2014 04:45:00 15.9 C 13.14 g/m*3 15.9 C 0 km/h
923 05-09-2014 04:50:00 15.9 C 13.14 g/m*3 15.9 C 0 km/h
924 05-09-2014 04:55:00 15.9 C 13.14 g/m*3 15.9 C 0 km/h
925 05-09-2014 05:00:00 15.9 C 13.14 g/m*3 15.9 C 0 km/h
Sensor: Nr:Datum:Temp:Abs-Feuchte:Windchill:Wind:
Aussen-T/F 926 05-09-2014 05:05:00 15.9 C 13.14 g/m*3 15.9 C 0 km/h
927 05-09-2014 05:10:00 15.9 C 13.14 g/m*3 15.9 C 0 km/h
928 05-09-2014 05:15:00 15.9 C 13.14 g/m*3 15.9 C 0 km/h
929 05-09-2014 05:20:00 15.9 C 13.14 g/m*3 15.9 C 0 km/h
930 05-09-2014 05:25:00 15.9 C 13.14 g/m*3 15.9 C 0 km/h
931 05-09-2014 05:30:00 15.9 C 13.14 g/m*3 15.9 C 0 km/h
932 05-09-2014 05:35:00 15.9 C 13.14 g/m*3 15.9 C 0 km/h
933 05-09-2014 05:40:00 15.9 C 13.14 g/m*3 15.9 C 0 km/h
934 05-09-2014 05:45:00 15.9 C 13.14 g/m*3 15.9 C 0 km/h
935 05-09-2014 05:50:00 15.8 C 13.06 g/m*3 15.8 C 0 km/h
936 05-09-2014 05:55:00 15.8 C 13.06 g/m*3 15.8 C 0 km/h
937 05-09-2014 06:00:00 15.8 C 13.06 g/m*3 15.8 C 0 km/h
938 05-09-2014 06:05:00 15.7 C 12.98 g/m*3 15.7 C 0 km/h
939 05-09-2014 06:10:00 15.7 C 12.98 g/m*3 15.7 C 0 km/h
940 05-09-2014 06:15:00 15.7 C 12.98 g/m*3 15.7 C 0 km/h
941 05-09-2014 06:20:00 15.7 C 12.98 g/m*3 15.7 C 0 km/h
942 05-09-2014 06:25:00 15.7 C 12.98 g/m*3 15.7 C 0 km/h
943 05-09-2014 06:30:00 15.7 C 12.98 g/m*3 15.7 C 0 km/h
944 05-09-2014 06:35:00 15.7 C 12.98 g/m*3 15.7 C 0 km/h
945 05-09-2014 06:40:00 15.7 C 12.98 g/m*3 15.7 C 0 km/h
946 05-09-2014 06:45:00 15.7 C 12.98 g/m*3 15.7 C 0 km/h
947 05-09-2014 06:50:00 15.7 C 12.98 g/m*3 15.7 C 0 km/h
948 05-09-2014 06:55:00 15.7 C 12.98 g/m*3 15.7 C 0 km/h
949 05-09-2014 07:00:00 15.7 C 12.98 g/m*3 15.7 C 0 km/h
950 05-09-2014 07:05:00 15.6 C 12.9 g/m*3 15.6 C 0 km/h
Sensor: Nr:Datum:Temp:Abs-Feuchte:Windchill:Wind:
Aussen-T/F 951 05-09-2014 07:10:00 15.6 C 12.9 g/m*3 15.6 C 0 km/h
952 05-09-2014 07:15:00 15.6 C 12.9 g/m*3 15.6 C 0 km/h
953 05-09-2014 07:20:00 15.7 C 12.98 g/m*3 15.7 C 0 km/h
954 05-09-2014 07:25:00 15.7 C 12.98 g/m*3 15.7 C 0 km/h
955 05-09-2014 07:30:00 15.7 C 12.98 g/m*3 15.7 C 0 km/h
956 05-09-2014 07:35:00 15.7 C 12.98 g/m*3 15.7 C 0 km/h
957 05-09-2014 07:40:00 15.8 C 13.06 g/m*3 15.8 C 0 km/h
958 05-09-2014 07:45:00 15.8 C 13.06 g/m*3 15.8 C 0 km/h
959 05-09-2014 07:50:00 15.8 C 13.06 g/m*3 15.8 C 0 km/h
960 05-09-2014 07:55:00 15.8 C 13.06 g/m*3 15.8 C 0 km/h
961 05-09-2014 08:00:00 15.9 C 13.14 g/m*3 15.9 C 0 km/h
962 05-09-2014 08:05:00 15.9 C 13.27 g/m*3 15.9 C 0 km/h
963 05-09-2014 08:10:00 16 C 13.35 g/m*3 16 C 0 km/h
964 05-09-2014 08:15:00 16 C 13.35 g/m*3 16 C 0 km/h
965 05-09-2014 08:20:00 16.1 C 13.43 g/m*3 16.1 C 0 km/h
966 05-09-2014 08:25:00 16.1 C 13.43 g/m*3 16.1 C 0 km/h
967 05-09-2014 08:30:00 16.1 C 13.43 g/m*3 16.1 C 0 km/h
968 05-09-2014 08:35:00 16.2 C 13.38 g/m*3 16.2 C 0 km/h
969 05-09-2014 08:40:00 16.2 C 13.38 g/m*3 16.2 C 0 km/h
970 05-09-2014 08:45:00 16.3 C 13.46 g/m*3 16.3 C 0 km/h
971 05-09-2014 08:50:00 16.3 C 13.46 g/m*3 16.3 C 0 km/h
972 05-09-2014 08:55:00 16.3 C 13.46 g/m*3 16.3 C 0 km/h
973 05-09-2014 09:00:00 16.3 C 13.46 g/m*3 16.3 C 0 km/h
974 05-09-2014 09:05:00 16.4 C 13.54 g/m*3 16.4 C 0 km/h
975 05-09-2014 09:10:00 16.4 C 13.54 g/m*3 16.4 C 0 km/h
Sensor: Nr:Datum:Temp:Abs-Feuchte:Windchill:Wind:
Aussen-T/F 976 05-09-2014 09:15:00 16.5 C 13.62 g/m*3 16.5 C 0 km/h
977 05-09-2014 09:20:00 16.6 C 13.7 g/m*3 16.6 C 0 km/h
978 05-09-2014 09:25:00 16.7 C 13.79 g/m*3 16.7 C 0 km/h
979 05-09-2014 09:30:00 16.8 C 13.87 g/m*3 16.8 C 0 km/h
980 05-09-2014 09:35:00 16.8 C 13.73 g/m*3 16.8 C 0 km/h
981 05-09-2014 09:40:00 16.8 C 13.73 g/m*3 16.8 C 0 km/h
982 05-09-2014 09:45:00 16.9 C 13.81 g/m*3 16.9 C 0 km/h
983 05-09-2014 09:50:00 17 C 13.75 g/m*3 17 C 0 km/h
984 05-09-2014 09:55:00 17.2 C 14.06 g/m*3 17.2 C 0 km/h
985 05-09-2014 10:00:00 17.4 C 14.08 g/m*3 17.4 C 0 km/h
986 05-09-2014 10:05:00 17.5 C 14.01 g/m*3 17.5 C 0 km/h
987 05-09-2014 10:10:00 17.6 C 13.95 g/m*3 17.6 C 0 km/h
988 05-09-2014 10:15:00 17.7 C 14.03 g/m*3 17.7 C 0 km/h
989 05-09-2014 10:20:00 17.8 C 13.96 g/m*3 17.8 C 0 km/h
990 05-09-2014 10:25:00 17.9 C 14.05 g/m*3 17.9 C 0 km/h
991 05-09-2014 10:30:00 18.1 C 14.06 g/m*3 18.1 C 0 km/h
992 05-09-2014 10:35:00 18.2 C 14.14 g/m*3 18.2 C 0 km/h
993 05-09-2014 10:40:00 18.3 C 14.23 g/m*3 18.3 C 0 km/h
994 05-09-2014 10:45:00 18.4 C 14.31 g/m*3 18.4 C 0 km/h
995 05-09-2014 10:50:00 18.6 C 14.32 g/m*3 18.6 C 0 km/h
996 05-09-2014 10:55:00 18.8 C 14.33 g/m*3 18.8 C 0 km/h
997 05-09-2014 11:00:00 18.9 C 14.26 g/m*3 18.9 C 0 km/h
998 05-09-2014 11:05:00 19 C 14.5 g/m*3 19 C 0 km/h
999 05-09-2014 11:10:00 19.2 C 14.51 g/m*3 19.2 C 0 km/h
1000 05-09-2014 11:15:00 19.4 C 14.85 g/m*3 19.4 C 0 km/h
Sensor: Nr:Datum:Temp:Abs-Feuchte:Windchill:Wind:
Aussen-T/F 1001 05-09-2014 11:20:00 19.5 C 14.6 g/m*3 19.5 C 0 km/h
1002 05-09-2014 11:25:00 19.6 C 14.86 g/m*3 19.6 C 0 km/h
1003 05-09-2014 11:30:00 19.6 C 14.86 g/m*3 19.6 C 0 km/h
1004 05-09-2014 11:35:00 19.6 C 14.69 g/m*3 19.6 C 0 km/h
1005 05-09-2014 11:40:00 19.7 C 14.77 g/m*3 19.7 C 0 km/h
1006 05-09-2014 11:45:00 19.7 C 14.94 g/m*3 19.7 C 0 km/h
1007 05-09-2014 11:50:00 19.8 C 14.86 g/m*3 19.8 C 0 km/h
1008 05-09-2014 11:55:00 19.8 C 14.52 g/m*3 19.8 C 0 km/h
1009 05-09-2014 12:00:00 19.9 C 14.6 g/m*3 19.9 C 0 km/h
1010 05-09-2014 12:05:00 20 C 15.04 g/m*3 20 C 0 km/h
1011 05-09-2014 12:10:00 20.1 C 14.95 g/m*3 20.1 C 0 km/h
1012 05-09-2014 12:15:00 20.1 C 14.6 g/m*3 20.1 C 0 km/h
1013 05-09-2014 12:20:00 20.2 C 14.69 g/m*3 20.2 C 0 km/h
1014 05-09-2014 12:25:00 20.2 C 14.86 g/m*3 20.2 C 0 km/h
1015 05-09-2014 12:30:00 20.3 C 15.13 g/m*3 20.3 C 0 km/h
1016 05-09-2014 12:35:00 20.4 C 15.04 g/m*3 20.4 C 0 km/h
1017 05-09-2014 12:40:00 20.4 C 15.21 g/m*3 20.4 C 0 km/h
1018 05-09-2014 12:45:00 20.3 C 15.3 g/m*3 20.3 C 0 km/h
1019 05-09-2014 12:50:00 20.3 C 15.3 g/m*3 20.3 C 0 km/h
1020 05-09-2014 12:55:00 20.6 C 15.57 g/m*3 20.6 C 0 km/h
1021 05-09-2014 13:00:00 20.9 C 15.66 g/m*3 20.9 C 0 km/h
1022 05-09-2014 13:05:00 21.3 C 16.03 g/m*3 21.3 C 0 km/h
1023 05-09-2014 13:10:00 21.8 C 15.54 g/m*3 21.8 C 0 km/h
1024 05-09-2014 13:15:00 22.2 C 16.1 g/m*3 22.2 C 0 km/h
1025 05-09-2014 13:20:00 22.6 C 15.67 g/m*3 22.6 C 0 km/h
Sensor: Nr:Datum:Temp:Abs-Feuchte:Windchill:Wind:
Aussen-T/F 1026 05-09-2014 13:25:00 22.8 C 16.46 g/m*3 22.8 C 0 km/h
1027 05-09-2014 13:30:00 22.8 C 16.05 g/m*3 22.8 C 0 km/h
1028 05-09-2014 13:35:00 22.9 C 16.14 g/m*3 22.9 C 0 km/h
1029 05-09-2014 13:40:00 23 C 15.21 g/m*3 23 C 0 km/h
1030 05-09-2014 13:45:00 23.2 C 16.84 g/m*3 23.2 C 0 km/h
1031 05-09-2014 13:50:00 23.1 C 16.54 g/m*3 23.1 C 0 km/h
1032 05-09-2014 13:55:00 22.9 C 16.35 g/m*3 22.9 C 0 km/h
1033 05-09-2014 14:00:00 22.9 C 16.76 g/m*3 22.9 C 0 km/h
1034 05-09-2014 14:05:00 22.9 C 16.76 g/m*3 22.9 C 0 km/h
1035 05-09-2014 14:10:00 23 C 16.85 g/m*3 23 C 0 km/h
1036 05-09-2014 14:15:00 22.9 C 16.55 g/m*3 22.9 C 0 km/h
1037 05-09-2014 14:20:00 22.7 C 16.37 g/m*3 22.7 C 0 km/h
1038 05-09-2014 14:25:00 22.5 C 16.58 g/m*3 22.5 C 0 km/h
1039 05-09-2014 14:30:00 22.4 C 16.28 g/m*3 22.4 C 0 km/h
1040 05-09-2014 14:35:00 22.5 C 15.98 g/m*3 22.5 C 0 km/h
1041 05-09-2014 14:40:00 22.4 C 16.48 g/m*3 22.4 C 0 km/h
1042 05-09-2014 14:45:00 22.4 C 16.48 g/m*3 22.4 C 0 km/h
1043 05-09-2014 14:50:00 22.4 C 16.28 g/m*3 22.4 C 0 km/h
1044 05-09-2014 14:55:00 22.4 C 16.09 g/m*3 22.4 C 0 km/h
1045 05-09-2014 15:00:00 22.3 C 16.19 g/m*3 22.3 C 0 km/h
1046 05-09-2014 15:05:00 22.2 C 16.1 g/m*3 22.2 C 0 km/h
1047 05-09-2014 15:10:00 22.1 C 15.81 g/m*3 22.1 C 0 km/h
1048 05-09-2014 15:15:00 22.2 C 15.9 g/m*3 22.2 C 0 km/h
1049 05-09-2014 15:20:00 22.2 C 15.9 g/m*3 22.2 C 0 km/h
1050 05-09-2014 15:25:00 22.3 C 15.8 g/m*3 22.3 C 0 km/h
Sensor: Nr:Datum:Temp:Abs-Feuchte:Windchill:Wind:
Aussen-T/F 1051 05-09-2014 15:30:00 22.4 C 15.89 g/m*3 22.4 C 0 km/h
1052 05-09-2014 15:35:00 22.3 C 15.99 g/m*3 22.3 C 0 km/h
1053 05-09-2014 15:40:00 22.3 C 15.99 g/m*3 22.3 C 0 km/h
1054 05-09-2014 15:45:00 22.3 C 15.6 g/m*3 22.3 C 0 km/h
1055 05-09-2014 15:50:00 22.3 C 15.8 g/m*3 22.3 C 0 km/h
1056 05-09-2014 15:55:00 22.2 C 15.9 g/m*3 22.2 C 0 km/h
1057 05-09-2014 16:00:00 22.2 C 15.9 g/m*3 22.2 C 0 km/h
1058 05-09-2014 16:05:00 22.2 C 15.9 g/m*3 22.2 C 0 km/h
1059 05-09-2014 16:10:00 22.1 C 15.81 g/m*3 22.1 C 0 km/h
1060 05-09-2014 16:15:00 22 C 15.72 g/m*3 22 C 0 km/h
1061 05-09-2014 16:20:00 22.1 C 16.01 g/m*3 22.1 C 0 km/h
1062 05-09-2014 16:25:00 22.1 C 16.01 g/m*3 22.1 C 0 km/h
1063 05-09-2014 16:30:00 22.1 C 16.2 g/m*3 22.1 C 0 km/h
1064 05-09-2014 16:35:00 22.1 C 16.2 g/m*3 22.1 C 0 km/h
1065 05-09-2014 16:40:00 22.2 C 16.1 g/m*3 22.2 C 0 km/h
1066 05-09-2014 16:45:00 22.3 C 16.39 g/m*3 22.3 C 0 km/h
1067 05-09-2014 16:50:00 22.3 C 16.39 g/m*3 22.3 C 0 km/h
1068 05-09-2014 16:55:00 22.1 C 16.2 g/m*3 22.1 C 0 km/h
1069 05-09-2014 17:00:00 21.9 C 16.21 g/m*3 21.9 C 0 km/h
1070 05-09-2014 17:05:00 21.7 C 16.02 g/m*3 21.7 C 0 km/h
1071 05-09-2014 17:10:00 21.6 C 16.12 g/m*3 21.6 C 0 km/h
1072 05-09-2014 17:15:00 21.7 C 16.21 g/m*3 21.7 C 0 km/h
1073 05-09-2014 17:20:00 21.8 C 16.31 g/m*3 21.8 C 0 km/h
1074 05-09-2014 17:25:00 21.8 C 16.12 g/m*3 21.8 C 0 km/h
1075 05-09-2014 17:30:00 21.9 C 16.21 g/m*3 21.9 C 0 km/h
Sensor: Nr:Datum:Temp:Abs-Feuchte:Windchill:Wind:
Aussen-T/F 1076 05-09-2014 17:35:00 21.9 C 16.21 g/m*3 21.9 C 0 km/h
1077 05-09-2014 17:40:00 21.7 C 16.02 g/m*3 21.7 C 0 km/h
1078 05-09-2014 17:45:00 21.5 C 16.03 g/m*3 21.5 C 0 km/h
1079 05-09-2014 17:50:00 21.3 C 15.84 g/m*3 21.3 C 0 km/h
1080 05-09-2014 17:55:00 21.1 C 15.85 g/m*3 21.1 C 0 km/h
1081 05-09-2014 18:00:00 20.8 C 15.57 g/m*3 20.8 C 0 km/h
1082 05-09-2014 18:05:00 20.7 C 15.66 g/m*3 20.7 C 0 km/h
1083 05-09-2014 18:10:00 20.6 C 15.57 g/m*3 20.6 C 0 km/h
1084 05-09-2014 18:15:00 20.4 C 15.39 g/m*3 20.4 C 0 km/h
1085 05-09-2014 18:20:00 20.4 C 15.57 g/m*3 20.4 C 0 km/h
1086 05-09-2014 18:25:00 20.5 C 15.66 g/m*3 20.5 C 0 km/h
1087 05-09-2014 18:30:00 20.5 C 15.66 g/m*3 20.5 C 0 km/h
1088 05-09-2014 18:35:00 20.4 C 15.39 g/m*3 20.4 C 0 km/h
1089 05-09-2014 18:40:00 20.2 C 15.21 g/m*3 20.2 C 0 km/h
1090 05-09-2014 18:45:00 20.1 C 15.3 g/m*3 20.1 C 0 km/h
1091 05-09-2014 18:50:00 19.8 C 15.2 g/m*3 19.8 C 0 km/h
1092 05-09-2014 18:55:00 19.6 C 15.02 g/m*3 19.6 C 0 km/h
1093 05-09-2014 19:00:00 19.4 C 14.85 g/m*3 19.4 C 0 km/h
1094 05-09-2014 19:05:00 19.3 C 14.93 g/m*3 19.3 C 0 km/h
1095 05-09-2014 19:10:00 19.2 C 14.84 g/m*3 19.2 C 0 km/h
1096 05-09-2014 19:15:00 19.1 C 14.75 g/m*3 19.1 C 0 km/h
1097 05-09-2014 19:20:00 19.1 C 14.75 g/m*3 19.1 C 0 km/h
1098 05-09-2014 19:25:00 19 C 14.67 g/m*3 19 C 0 km/h
1099 05-09-2014 19:30:00 18.9 C 14.58 g/m*3 18.9 C 0 km/h
1100 05-09-2014 19:35:00 18.8 C 14.66 g/m*3 18.8 C 0 km/h
Sensor: Nr:Datum:Temp:Abs-Feuchte:Windchill:Wind:
Aussen-T/F 1101 05-09-2014 19:40:00 18.8 C 14.66 g/m*3 18.8 C 0 km/h
1102 05-09-2014 19:45:00 18.8 C 14.49 g/m*3 18.8 C 0 km/h
1103 05-09-2014 19:50:00 18.8 C 14.49 g/m*3 18.8 C 0 km/h
1104 05-09-2014 19:55:00 18.7 C 14.41 g/m*3 18.7 C 0 km/h
1105 05-09-2014 20:00:00 18.6 C 14.32 g/m*3 18.6 C 0 km/h
1106 05-09-2014 20:05:00 18.4 C 14.16 g/m*3 18.4 C 0 km/h
1107 05-09-2014 20:10:00 18.4 C 14.31 g/m*3 18.4 C 0 km/h
1108 05-09-2014 20:15:00 18.3 C 14.23 g/m*3 18.3 C 0 km/h
1109 05-09-2014 20:20:00 18.2 C 14.14 g/m*3 18.2 C 0 km/h
1110 05-09-2014 20:25:00 18.2 C 14.14 g/m*3 18.2 C 0 km/h
1111 05-09-2014 20:30:00 18.1 C 14.21 g/m*3 18.1 C 0 km/h
1112 05-09-2014 20:35:00 18 C 14.13 g/m*3 18 C 0 km/h
1113 05-09-2014 20:40:00 17.9 C 14.05 g/m*3 17.9 C 0 km/h
1114 05-09-2014 20:45:00 17.8 C 13.96 g/m*3 17.8 C 0 km/h
1115 05-09-2014 20:50:00 17.8 C 13.96 g/m*3 17.8 C 0 km/h
1116 05-09-2014 20:55:00 17.8 C 13.96 g/m*3 17.8 C 0 km/h
1117 05-09-2014 21:00:00 17.7 C 13.88 g/m*3 17.7 C 0 km/h
1118 05-09-2014 21:05:00 17.6 C 13.8 g/m*3 17.6 C 0 km/h
1119 05-09-2014 21:10:00 17.6 C 13.8 g/m*3 17.6 C 0 km/h
1120 05-09-2014 21:15:00 17.5 C 13.72 g/m*3 17.5 C 0 km/h
1121 05-09-2014 21:20:00 17.4 C 13.63 g/m*3 17.4 C 0 km/h
1122 05-09-2014 21:25:00 17.3 C 13.55 g/m*3 17.3 C 0 km/h
1123 05-09-2014 21:30:00 17.3 C 13.7 g/m*3 17.3 C 0 km/h
1124 05-09-2014 21:35:00 17.2 C 13.62 g/m*3 17.2 C 0 km/h
1125 05-09-2014 21:40:00 17.1 C 13.39 g/m*3 17.1 C 0 km/h
Sensor: Nr:Datum:Temp:Abs-Feuchte:Windchill:Wind:
Aussen-T/F 1126 05-09-2014 21:45:00 17 C 13.46 g/m*3 17 C 0 km/h
1127 05-09-2014 21:50:00 16.9 C 13.38 g/m*3 16.9 C 0 km/h
1128 05-09-2014 21:55:00 16.9 C 13.38 g/m*3 16.9 C 0 km/h
1129 05-09-2014 22:00:00 16.8 C 13.3 g/m*3 16.8 C 0 km/h
1130 05-09-2014 22:05:00 16.8 C 13.3 g/m*3 16.8 C 0 km/h
1131 05-09-2014 22:10:00 16.7 C 13.22 g/m*3 16.7 C 0 km/h
1132 05-09-2014 22:15:00 16.7 C 13.22 g/m*3 16.7 C 0 km/h
1133 05-09-2014 22:20:00 16.6 C 13.14 g/m*3 16.6 C 0 km/h
1134 05-09-2014 22:25:00 16.6 C 13.28 g/m*3 16.6 C 0 km/h
1135 05-09-2014 22:30:00 16.6 C 13.28 g/m*3 16.6 C 0 km/h
1136 05-09-2014 22:35:00 16.5 C 13.2 g/m*3 16.5 C 0 km/h
1137 05-09-2014 22:40:00 16.4 C 13.12 g/m*3 16.4 C 0 km/h
1138 05-09-2014 22:45:00 16.4 C 13.12 g/m*3 16.4 C 0 km/h
1139 05-09-2014 22:50:00 16.4 C 13.12 g/m*3 16.4 C 0 km/h
1140 05-09-2014 22:55:00 16.3 C 13.04 g/m*3 16.3 C 0 km/h
1141 05-09-2014 23:00:00 16.2 C 12.96 g/m*3 16.2 C 0 km/h
1142 05-09-2014 23:05:00 16.2 C 12.96 g/m*3 16.2 C 0 km/h
1143 05-09-2014 23:10:00 16.2 C 12.96 g/m*3 16.2 C 0 km/h
1144 05-09-2014 23:15:00 16.1 C 12.88 g/m*3 16.1 C 0 km/h
1145 05-09-2014 23:20:00 16.1 C 13.02 g/m*3 16.1 C 0 km/h
1146 05-09-2014 23:25:00 16 C 12.94 g/m*3 16 C 0 km/h
1147 05-09-2014 23:30:00 15.9 C 12.87 g/m*3 15.9 C 0 km/h
1148 05-09-2014 23:35:00 15.9 C 12.87 g/m*3 15.9 C 0 km/h
1149 05-09-2014 23:40:00 15.8 C 12.79 g/m*3 15.8 C 0 km/h
1150 05-09-2014 23:45:00 15.8 C 12.79 g/m*3 15.8 C 0 km/h
Sensor: Nr:Datum:Temp:Abs-Feuchte:Windchill:Wind:
Aussen-T/F 1151 05-09-2014 23:50:00 15.8 C 12.79 g/m*3 15.8 C 0 km/h
1152 05-09-2014 23:55:00 15.7 C 12.71 g/m*3 15.7 C 0 km/h
1153 06-09-2014 00:00:00 15.7 C 12.71 g/m*3 15.7 C 0 km/h
1154 06-09-2014 00:05:00 15.6 C 12.63 g/m*3 15.6 C 0 km/h
1155 06-09-2014 00:10:00 15.7 C 12.84 g/m*3 15.7 C 0 km/h
1156 06-09-2014 00:15:00 15.7 C 12.84 g/m*3 15.7 C 0 km/h
1157 06-09-2014 00:20:00 15.7 C 12.84 g/m*3 15.7 C 0 km/h
1158 06-09-2014 00:25:00 15.7 C 12.84 g/m*3 15.7 C 0 km/h
1159 06-09-2014 00:30:00 15.7 C 12.84 g/m*3 15.7 C 0 km/h
1160 06-09-2014 00:35:00 15.7 C 12.84 g/m*3 15.7 C 0 km/h
1161 06-09-2014 00:40:00 15.7 C 12.84 g/m*3 15.7 C 0 km/h
1162 06-09-2014 00:45:00 15.7 C 12.84 g/m*3 15.7 C 0 km/h
1163 06-09-2014 00:50:00 15.7 C 12.84 g/m*3 15.7 C 0 km/h
1164 06-09-2014 00:55:00 15.6 C 12.77 g/m*3 15.6 C 0 km/h
1165 06-09-2014 01:00:00 15.6 C 12.77 g/m*3 15.6 C 0 km/h
1166 06-09-2014 01:05:00 15.6 C 12.77 g/m*3 15.6 C 0 km/h
1167 06-09-2014 01:10:00 15.6 C 12.77 g/m*3 15.6 C 0 km/h
1168 06-09-2014 01:15:00 15.6 C 12.77 g/m*3 15.6 C 0 km/h
1169 06-09-2014 01:20:00 15.6 C 12.77 g/m*3 15.6 C 0 km/h
1170 06-09-2014 01:25:00 15.6 C 12.77 g/m*3 15.6 C 0 km/h
1171 06-09-2014 01:30:00 15.6 C 12.77 g/m*3 15.6 C 0 km/h
1172 06-09-2014 01:35:00 15.6 C 12.77 g/m*3 15.6 C 0 km/h
1173 06-09-2014 01:40:00 15.7 C 12.84 g/m*3 15.7 C 0 km/h
1174 06-09-2014 01:45:00 15.6 C 12.77 g/m*3 15.6 C 0 km/h
1175 06-09-2014 01:50:00 15.6 C 12.77 g/m*3 15.6 C 0 km/h
Sensor: Nr:Datum:Temp:Abs-Feuchte:Windchill:Wind:
Aussen-T/F 1176 06-09-2014 01:55:00 15.4 C 12.61 g/m*3 15.4 C 0 km/h
1177 06-09-2014 02:00:00 15.3 C 12.54 g/m*3 15.3 C 0 km/h
1178 06-09-2014 02:05:00 15.3 C 12.54 g/m*3 15.3 C 0 km/h
1179 06-09-2014 02:10:00 15.3 C 12.54 g/m*3 15.3 C 0 km/h
1180 06-09-2014 02:15:00 15.2 C 12.46 g/m*3 15.2 C 0 km/h
1181 06-09-2014 02:20:00 15.2 C 12.59 g/m*3 15.2 C 0 km/h
1182 06-09-2014 02:25:00 15.2 C 12.59 g/m*3 15.2 C 0 km/h
1183 06-09-2014 02:30:00 15.2 C 12.46 g/m*3 15.2 C 0 km/h
1184 06-09-2014 02:35:00 15.1 C 12.39 g/m*3 15.1 C 0 km/h
1185 06-09-2014 02:40:00 15 C 12.31 g/m*3 15 C 0 km/h
1186 06-09-2014 02:45:00 15 C 12.31 g/m*3 15 C 0 km/h
1187 06-09-2014 02:50:00 14.9 C 12.36 g/m*3 14.9 C 0 km/h
1188 06-09-2014 02:55:00 14.8 C 12.29 g/m*3 14.8 C 0 km/h
1189 06-09-2014 03:00:00 14.9 C 12.36 g/m*3 14.9 C 0 km/h
1190 06-09-2014 03:05:00 14.8 C 12.29 g/m*3 14.8 C 0 km/h
1191 06-09-2014 03:10:00 14.8 C 12.29 g/m*3 14.8 C 0 km/h
1192 06-09-2014 03:15:00 14.7 C 12.21 g/m*3 14.7 C 0 km/h
1193 06-09-2014 03:20:00 14.8 C 12.29 g/m*3 14.8 C 0 km/h
1194 06-09-2014 03:25:00 14.7 C 12.21 g/m*3 14.7 C 0 km/h
1195 06-09-2014 03:30:00 14.7 C 12.21 g/m*3 14.7 C 0 km/h
1196 06-09-2014 03:35:00 14.7 C 12.21 g/m*3 14.7 C 0 km/h
1197 06-09-2014 03:40:00 14.7 C 12.21 g/m*3 14.7 C 0 km/h
1198 06-09-2014 03:45:00 14.7 C 12.21 g/m*3 14.7 C 0 km/h
1199 06-09-2014 03:50:00 14.7 C 12.21 g/m*3 14.7 C 0 km/h
1200 06-09-2014 03:55:00 14.6 C 12.14 g/m*3 14.6 C 0 km/h
Sensor: Nr:Datum:Temp:Abs-Feuchte:Windchill:Wind:
Aussen-T/F 1201 06-09-2014 04:00:00 14.5 C 12.06 g/m*3 14.5 C 0 km/h
1202 06-09-2014 04:05:00 14.4 C 11.99 g/m*3 14.4 C 0 km/h
1203 06-09-2014 04:10:00 14.3 C 11.92 g/m*3 14.3 C 0 km/h
1204 06-09-2014 04:15:00 14.3 C 11.92 g/m*3 14.3 C 0 km/h
1205 06-09-2014 04:20:00 14.2 C 11.84 g/m*3 14.2 C 0 km/h
1206 06-09-2014 04:25:00 14.1 C 11.77 g/m*3 14.1 C 0 km/h
1207 06-09-2014 04:30:00 14.1 C 11.77 g/m*3 14.1 C 0 km/h
1208 06-09-2014 04:35:00 14.1 C 11.77 g/m*3 14.1 C 0 km/h
1209 06-09-2014 04:40:00 13.9 C 11.63 g/m*3 13.9 C 0 km/h
1210 06-09-2014 04:45:00 13.9 C 11.63 g/m*3 13.9 C 0 km/h
1211 06-09-2014 04:50:00 13.8 C 11.56 g/m*3 13.8 C 0 km/h
1212 06-09-2014 04:55:00 13.8 C 11.56 g/m*3 13.8 C 0 km/h
1213 06-09-2014 05:00:00 13.7 C 11.49 g/m*3 13.7 C 0 km/h
1214 06-09-2014 05:05:00 13.7 C 11.49 g/m*3 13.7 C 0 km/h
1215 06-09-2014 05:10:00 13.7 C 11.49 g/m*3 13.7 C 0 km/h
1216 06-09-2014 05:15:00 13.7 C 11.49 g/m*3 13.7 C 0 km/h
1217 06-09-2014 05:20:00 13.8 C 11.56 g/m*3 13.8 C 0 km/h
1218 06-09-2014 05:25:00 13.9 C 11.75 g/m*3 13.9 C 0 km/h
1219 06-09-2014 05:30:00 14.1 C 11.89 g/m*3 14.1 C 0 km/h
1220 06-09-2014 05:35:00 14.1 C 11.89 g/m*3 14.1 C 0 km/h
1221 06-09-2014 05:40:00 14.1 C 11.89 g/m*3 14.1 C 0 km/h
1222 06-09-2014 05:45:00 14.1 C 11.77 g/m*3 14.1 C 0 km/h
1223 06-09-2014 05:50:00 14.1 C 11.77 g/m*3 14.1 C 0 km/h
1224 06-09-2014 05:55:00 14.1 C 11.77 g/m*3 14.1 C 0 km/h
1225 06-09-2014 06:00:00 13.9 C 11.63 g/m*3 13.9 C 0 km/h
Sensor: Nr:Datum:Temp:Abs-Feuchte:Windchill:Wind:
Aussen-T/F 1226 06-09-2014 06:05:00 13.8 C 11.56 g/m*3 13.8 C 0 km/h
1227 06-09-2014 06:10:00 13.8 C 11.56 g/m*3 13.8 C 0 km/h
1228 06-09-2014 06:15:00 13.8 C 11.56 g/m*3 13.8 C 0 km/h
1229 06-09-2014 06:20:00 13.8 C 11.56 g/m*3 13.8 C 0 km/h
1230 06-09-2014 06:25:00 13.8 C 11.56 g/m*3 13.8 C 0 km/h
1231 06-09-2014 06:30:00 13.8 C 11.56 g/m*3 13.8 C 0 km/h
1232 06-09-2014 06:35:00 13.9 C 11.75 g/m*3 13.9 C 0 km/h
1233 06-09-2014 06:40:00 13.9 C 11.75 g/m*3 13.9 C 0 km/h
1234 06-09-2014 06:45:00 13.9 C 11.75 g/m*3 13.9 C 0 km/h
1235 06-09-2014 06:50:00 13.9 C 11.75 g/m*3 13.9 C 0 km/h
1236 06-09-2014 06:55:00 13.9 C 11.75 g/m*3 13.9 C 0 km/h
1237 06-09-2014 07:00:00 13.9 C 11.75 g/m*3 13.9 C 0 km/h
1238 06-09-2014 07:05:00 13.8 C 11.68 g/m*3 13.8 C 0 km/h
1239 06-09-2014 07:10:00 13.7 C 11.6 g/m*3 13.7 C 0 km/h
1240 06-09-2014 07:15:00 13.7 C 11.6 g/m*3 13.7 C 0 km/h
1241 06-09-2014 07:20:00 13.7 C 11.6 g/m*3 13.7 C 0 km/h
1242 06-09-2014 07:25:00 13.7 C 11.6 g/m*3 13.7 C 0 km/h
1243 06-09-2014 07:30:00 13.7 C 11.6 g/m*3 13.7 C 0 km/h
1244 06-09-2014 07:35:00 13.8 C 11.68 g/m*3 13.8 C 0 km/h
1245 06-09-2014 07:40:00 13.8 C 11.68 g/m*3 13.8 C 0 km/h
1246 06-09-2014 07:45:00 13.8 C 11.68 g/m*3 13.8 C 0 km/h
1247 06-09-2014 07:50:00 13.8 C 11.68 g/m*3 13.8 C 0 km/h
1248 06-09-2014 07:55:00 13.8 C 11.68 g/m*3 13.8 C 0 km/h
1249 06-09-2014 08:00:00 13.8 C 11.68 g/m*3 13.8 C 0 km/h
1250 06-09-2014 08:05:00 13.8 C 11.68 g/m*3 13.8 C 0 km/h
Sensor: Nr:Datum:Temp:Abs-Feuchte:Windchill:Wind:
Aussen-T/F 1251 06-09-2014 08:10:00 13.7 C 11.6 g/m*3 13.7 C 0 km/h
1252 06-09-2014 08:15:00 13.8 C 11.68 g/m*3 13.8 C 0 km/h
1253 06-09-2014 08:20:00 13.9 C 11.75 g/m*3 13.9 C 0 km/h
1254 06-09-2014 08:25:00 14 C 11.82 g/m*3 14 C 0 km/h
1255 06-09-2014 08:30:00 14.1 C 11.89 g/m*3 14.1 C 0 km/h
1256 06-09-2014 08:35:00 14.1 C 11.89 g/m*3 14.1 C 0 km/h
1257 06-09-2014 08:40:00 14.1 C 11.89 g/m*3 14.1 C 0 km/h
1258 06-09-2014 08:45:00 14.1 C 11.89 g/m*3 14.1 C 0 km/h
1259 06-09-2014 08:50:00 14.1 C 11.89 g/m*3 14.1 C 0 km/h
1260 06-09-2014 08:55:00 14.1 C 11.89 g/m*3 14.1 C 0 km/h
1261 06-09-2014 09:00:00 14.1 C 11.89 g/m*3 14.1 C 0 km/h
1262 06-09-2014 09:05:00 14.2 C 11.97 g/m*3 14.2 C 0 km/h
1263 06-09-2014 09:10:00 14.2 C 11.97 g/m*3 14.2 C 0 km/h
1264 06-09-2014 09:15:00 14.3 C 12.04 g/m*3 14.3 C 0 km/h
1265 06-09-2014 09:20:00 14.4 C 12.11 g/m*3 14.4 C 0 km/h
1266 06-09-2014 09:25:00 14.4 C 12.11 g/m*3 14.4 C 0 km/h
1267 06-09-2014 09:30:00 14.4 C 12.11 g/m*3 14.4 C 0 km/h
1268 06-09-2014 09:35:00 14.4 C 12.11 g/m*3 14.4 C 0 km/h
1269 06-09-2014 09:40:00 14.5 C 12.19 g/m*3 14.5 C 0 km/h
1270 06-09-2014 09:45:00 14.5 C 12.19 g/m*3 14.5 C 0 km/h
1271 06-09-2014 09:50:00 14.6 C 12.26 g/m*3 14.6 C 0 km/h
1272 06-09-2014 09:55:00 14.7 C 12.34 g/m*3 14.7 C 0 km/h
1273 06-09-2014 10:00:00 14.8 C 12.41 g/m*3 14.8 C 0 km/h
1274 06-09-2014 10:05:00 14.8 C 12.41 g/m*3 14.8 C 0 km/h
1275 06-09-2014 10:10:00 14.8 C 12.41 g/m*3 14.8 C 0 km/h
Sensor: Nr:Datum:Temp:Abs-Feuchte:Windchill:Wind:
Aussen-T/F 1276 06-09-2014 10:15:00 14.9 C 12.49 g/m*3 14.9 C 0 km/h
1277 06-09-2014 10:20:00 15 C 12.57 g/m*3 15 C 0 km/h
1278 06-09-2014 10:25:00 15.1 C 12.64 g/m*3 15.1 C 0 km/h
1279 06-09-2014 10:30:00 15.1 C 12.64 g/m*3 15.1 C 0 km/h
1280 06-09-2014 10:35:00 15.2 C 12.72 g/m*3 15.2 C 0 km/h
1281 06-09-2014 10:40:00 15.2 C 12.72 g/m*3 15.2 C 0 km/h
1282 06-09-2014 10:45:00 15.3 C 12.8 g/m*3 15.3 C 0 km/h
1283 06-09-2014 10:50:00 15.6 C 13.03 g/m*3 15.6 C 0 km/h
1284 06-09-2014 10:55:00 15.8 C 13.19 g/m*3 15.8 C 0 km/h
1285 06-09-2014 11:00:00 16.1 C 13.43 g/m*3 16.1 C 0 km/h
1286 06-09-2014 11:05:00 16.3 C 13.6 g/m*3 16.3 C 0 km/h
1287 06-09-2014 11:10:00 16.4 C 13.68 g/m*3 16.4 C 0 km/h
1288 06-09-2014 11:15:00 16.6 C 13.84 g/m*3 16.6 C 0 km/h
1289 06-09-2014 11:20:00 16.8 C 14.01 g/m*3 16.8 C 0 km/h
1290 06-09-2014 11:25:00 17 C 14.18 g/m*3 17 C 0 km/h
1291 06-09-2014 11:30:00 17.2 C 14.35 g/m*3 17.2 C 0 km/h
1292 06-09-2014 11:35:00 17.3 C 14.29 g/m*3 17.3 C 0 km/h
1293 06-09-2014 11:40:00 17.6 C 14.55 g/m*3 17.6 C 0 km/h
1294 06-09-2014 11:45:00 17.8 C 14.57 g/m*3 17.8 C 0 km/h
1295 06-09-2014 11:50:00 18 C 14.75 g/m*3 18 C 0 km/h
1296 06-09-2014 11:55:00 18.3 C 14.85 g/m*3 18.3 C 0 km/h
1297 06-09-2014 12:00:00 18.6 C 14.96 g/m*3 18.6 C 0 km/h
1298 06-09-2014 12:05:00 18.8 C 14.82 g/m*3 18.8 C 0 km/h
1299 06-09-2014 12:10:00 19.1 C 14.92 g/m*3 19.1 C 0 km/h
1300 06-09-2014 12:15:00 19.1 C 14.75 g/m*3 19.1 C 0 km/h
Sensor: Nr:Datum:Temp:Abs-Feuchte:Windchill:Wind:
Aussen-T/F 1301 06-09-2014 12:20:00 19.3 C 14.76 g/m*3 19.3 C 0 km/h
1302 06-09-2014 12:25:00 19.3 C 14.93 g/m*3 19.3 C 0 km/h
1303 06-09-2014 12:30:00 19.4 C 15.02 g/m*3 19.4 C 0 km/h
1304 06-09-2014 12:35:00 19.5 C 14.94 g/m*3 19.5 C 0 km/h
1305 06-09-2014 12:40:00 19.6 C 15.19 g/m*3 19.6 C 0 km/h
1306 06-09-2014 12:45:00 19.4 C 15.18 g/m*3 19.4 C 0 km/h
1307 06-09-2014 12:50:00 19.4 C 15.35 g/m*3 19.4 C 0 km/h
1308 06-09-2014 12:55:00 19.6 C 15.53 g/m*3 19.6 C 0 km/h
1309 06-09-2014 13:00:00 20.1 C 15.64 g/m*3 20.1 C 0 km/h
1310 06-09-2014 13:05:00 20.4 C 15.74 g/m*3 20.4 C 0 km/h
1311 06-09-2014 13:10:00 20.7 C 16.02 g/m*3 20.7 C 0 km/h
1312 06-09-2014 13:15:00 20.9 C 16.21 g/m*3 20.9 C 0 km/h
1313 06-09-2014 13:20:00 21.3 C 16.4 g/m*3 21.3 C 0 km/h
1314 06-09-2014 13:25:00 21.6 C 16.69 g/m*3 21.6 C 0 km/h
1315 06-09-2014 13:30:00 21.8 C 16.12 g/m*3 21.8 C 0 km/h
1316 06-09-2014 13:35:00 21.4 C 15.94 g/m*3 21.4 C 0 km/h
1317 06-09-2014 13:40:00 20.8 C 15.75 g/m*3 20.8 C 0 km/h
1318 06-09-2014 13:45:00 20.6 C 15.93 g/m*3 20.6 C 0 km/h
1319 06-09-2014 13:50:00 20.6 C 16.11 g/m*3 20.6 C 0 km/h
1320 06-09-2014 13:55:00 20.9 C 16.39 g/m*3 20.9 C 0 km/h
1321 06-09-2014 14:00:00 20.8 C 15.93 g/m*3 20.8 C 0 km/h
1322 06-09-2014 14:05:00 20.8 C 15.93 g/m*3 20.8 C 0 km/h
1323 06-09-2014 14:10:00 21.1 C 15.85 g/m*3 21.1 C 0 km/h
1324 06-09-2014 14:15:00 21.2 C 15.94 g/m*3 21.2 C 0 km/h
1325 06-09-2014 14:20:00 21.1 C 15.66 g/m*3 21.1 C 0 km/h
Sensor: Nr:Datum:Temp:Abs-Feuchte:Windchill:Wind:
Aussen-T/F 1326 06-09-2014 14:25:00 20.9 C 15.66 g/m*3 20.9 C 0 km/h
1327 06-09-2014 14:30:00 20.8 C 15.57 g/m*3 20.8 C 0 km/h
1328 06-09-2014 14:35:00 21 C 15.94 g/m*3 21 C 0 km/h
1329 06-09-2014 14:40:00 21.2 C 16.12 g/m*3 21.2 C 0 km/h
1330 06-09-2014 14:45:00 21.3 C 16.03 g/m*3 21.3 C 0 km/h
1331 06-09-2014 14:50:00 21.2 C 16.12 g/m*3 21.2 C 0 km/h
1332 06-09-2014 14:55:00 21.1 C 16.03 g/m*3 21.1 C 0 km/h
1333 06-09-2014 15:00:00 21.1 C 16.03 g/m*3 21.1 C 0 km/h
1334 06-09-2014 15:05:00 21.1 C 16.03 g/m*3 21.1 C 0 km/h
1335 06-09-2014 15:10:00 21.2 C 16.31 g/m*3 21.2 C 0 km/h
1336 06-09-2014 15:15:00 21.4 C 16.31 g/m*3 21.4 C 0 km/h
1337 06-09-2014 15:20:00 21.6 C 16.31 g/m*3 21.6 C 0 km/h
1338 06-09-2014 15:25:00 21.6 C 16.5 g/m*3 21.6 C 0 km/h
1339 06-09-2014 15:30:00 21.7 C 16.41 g/m*3 21.7 C 0 km/h
1340 06-09-2014 15:35:00 21.6 C 16.5 g/m*3 21.6 C 0 km/h
1341 06-09-2014 15:40:00 21.3 C 16.03 g/m*3 21.3 C 0 km/h
1342 06-09-2014 15:45:00 21.3 C 16.4 g/m*3 21.3 C 0 km/h
1343 06-09-2014 15:50:00 21.3 C 16.4 g/m*3 21.3 C 0 km/h
1344 06-09-2014 15:55:00 21.4 C 16.31 g/m*3 21.4 C 0 km/h
1345 06-09-2014 16:00:00 21.8 C 15.54 g/m*3 21.8 C 0 km/h
1346 06-09-2014 16:05:00 22.8 C 14.43 g/m*3 22.8 C 0 km/h
1347 06-09-2014 16:10:00 23.8 C 16.13 g/m*3 23.8 C 0 km/h
1348 06-09-2014 16:15:00 24.3 C 14.83 g/m*3 24.3 C 6.4 km/h
1349 06-09-2014 16:20:00 24.7 C 15.39 g/m*3 24.7 C 4.8 km/h
1350 06-09-2014 16:25:00 24.7 C 16.07 g/m*3 24.7 C 0 km/h
Sensor: Nr:Datum:Temp:Abs-Feuchte:Windchill:Wind:
Aussen-T/F 1351 06-09-2014 16:30:00 23.8 C 16.35 g/m*3 23.8 C 0 km/h
1352 06-09-2014 16:35:00 22.9 C 16.14 g/m*3 22.9 C 0 km/h
1353 06-09-2014 16:40:00 22.2 C 16.1 g/m*3 22.2 C 0 km/h
1354 06-09-2014 16:45:00 21.7 C 16.21 g/m*3 21.7 C 0 km/h
1355 06-09-2014 16:50:00 21.3 C 16.03 g/m*3 21.3 C 0 km/h
1356 06-09-2014 16:55:00 20.9 C 15.84 g/m*3 20.9 C 3.2 km/h
1357 06-09-2014 17:00:00 20.7 C 15.66 g/m*3 20.7 C 3.2 km/h
1358 06-09-2014 17:05:00 20.6 C 15.57 g/m*3 20.6 C 4.8 km/h
1359 06-09-2014 17:10:00 20.5 C 15.66 g/m*3 20.5 C 0 km/h
1360 06-09-2014 17:15:00 20.4 C 15.57 g/m*3 20.4 C 0 km/h
1361 06-09-2014 17:20:00 20.4 C 15.57 g/m*3 20.4 C 0 km/h
1362 06-09-2014 17:25:00 20.4 C 15.57 g/m*3 20.4 C 0 km/h
1363 06-09-2014 17:30:00 20.5 C 15.84 g/m*3 20.5 C 0 km/h
1364 06-09-2014 17:35:00 20.7 C 15.84 g/m*3 20.7 C 0 km/h
1365 06-09-2014 17:40:00 20.8 C 15.93 g/m*3 20.8 C 0 km/h
1366 06-09-2014 17:45:00 21 C 16.3 g/m*3 21 C 0 km/h
1367 06-09-2014 17:50:00 21.4 C 16.5 g/m*3 21.4 C 0 km/h
1368 06-09-2014 17:55:00 21.8 C 16.69 g/m*3 21.8 C 0 km/h
1369 06-09-2014 18:00:00 22.4 C 15.69 g/m*3 22.4 C 0 km/h
1370 06-09-2014 18:05:00 23.3 C 15.89 g/m*3 23.3 C 3.2 km/h
1371 06-09-2014 18:10:00 23.9 C 17.09 g/m*3 23.9 C 0 km/h
1372 06-09-2014 18:15:00 24.1 C 17.07 g/m*3 24.1 C 0 km/h
1373 06-09-2014 18:20:00 24 C 16.97 g/m*3 24 C 0 km/h
1374 06-09-2014 18:25:00 23.8 C 16.78 g/m*3 23.8 C 0 km/h
1375 06-09-2014 18:30:00 23.9 C 16.44 g/m*3 23.9 C 0 km/h
Sensor: Nr:Datum:Temp:Abs-Feuchte:Windchill:Wind:
Aussen-T/F 1376 06-09-2014 18:35:00 23.9 C 16.66 g/m*3 23.9 C 0 km/h
1377 06-09-2014 18:40:00 23.9 C 16.87 g/m*3 23.9 C 0 km/h
1378 06-09-2014 18:45:00 23.6 C 16.8 g/m*3 23.6 C 0 km/h
1379 06-09-2014 18:50:00 23.1 C 16.54 g/m*3 23.1 C 0 km/h
1380 06-09-2014 18:55:00 22.7 C 16.37 g/m*3 22.7 C 0 km/h
1381 06-09-2014 19:00:00 22.3 C 16.39 g/m*3 22.3 C 0 km/h
1382 06-09-2014 19:05:00 22.1 C 16.4 g/m*3 22.1 C 0 km/h
1383 06-09-2014 19:10:00 21.9 C 16.4 g/m*3 21.9 C 0 km/h
1384 06-09-2014 19:15:00 21.7 C 16.21 g/m*3 21.7 C 0 km/h
1385 06-09-2014 19:20:00 21.5 C 16.03 g/m*3 21.5 C 0 km/h
1386 06-09-2014 19:25:00 21.3 C 16.03 g/m*3 21.3 C 0 km/h
1387 06-09-2014 19:30:00 20.9 C 15.84 g/m*3 20.9 C 0 km/h
1388 06-09-2014 19:35:00 20.3 C 15.48 g/m*3 20.3 C 0 km/h
1389 06-09-2014 19:40:00 19.9 C 15.29 g/m*3 19.9 C 0 km/h
1390 06-09-2014 19:45:00 19.7 C 15.28 g/m*3 19.7 C 0 km/h
1391 06-09-2014 19:50:00 19.5 C 15.1 g/m*3 19.5 C 3.2 km/h
1392 06-09-2014 19:55:00 19.3 C 15.09 g/m*3 19.3 C 0 km/h
1393 06-09-2014 20:00:00 19.2 C 15.01 g/m*3 19.2 C 0 km/h
1394 06-09-2014 20:05:00 19.1 C 14.92 g/m*3 19.1 C 0 km/h
1395 06-09-2014 20:10:00 18.9 C 14.9 g/m*3 18.9 C 0 km/h
1396 06-09-2014 20:15:00 18.8 C 14.82 g/m*3 18.8 C 0 km/h
1397 06-09-2014 20:20:00 18.7 C 14.89 g/m*3 18.7 C 0 km/h
1398 06-09-2014 20:25:00 18.6 C 14.8 g/m*3 18.6 C 0 km/h
1399 06-09-2014 20:30:00 18.5 C 14.71 g/m*3 18.5 C 0 km/h
1400 06-09-2014 20:35:00 18.4 C 14.63 g/m*3 18.4 C 0 km/h
Sensor: Nr:Datum:Temp:Abs-Feuchte:Windchill:Wind:
Aussen-T/F 1401 06-09-2014 20:40:00 18.3 C 14.54 g/m*3 18.3 C 0 km/h
1402 06-09-2014 20:45:00 18.3 C 14.7 g/m*3 18.3 C 0 km/h
1403 06-09-2014 20:50:00 18.2 C 14.61 g/m*3 18.2 C 0 km/h
1404 06-09-2014 20:55:00 18.2 C 14.61 g/m*3 18.2 C 0 km/h
1405 06-09-2014 21:00:00 18.2 C 14.61 g/m*3 18.2 C 0 km/h
1406 06-09-2014 21:05:00 18.2 C 14.61 g/m*3 18.2 C 0 km/h
1407 06-09-2014 21:10:00 18.2 C 14.61 g/m*3 18.2 C 0 km/h
1408 06-09-2014 21:15:00 18.1 C 14.52 g/m*3 18.1 C 0 km/h
1409 06-09-2014 21:20:00 18.1 C 14.52 g/m*3 18.1 C 0 km/h
1410 06-09-2014 21:25:00 18 C 14.44 g/m*3 18 C 0 km/h
1411 06-09-2014 21:30:00 17.9 C 14.35 g/m*3 17.9 C 0 km/h
1412 06-09-2014 21:35:00 17.8 C 14.27 g/m*3 17.8 C 0 km/h
1413 06-09-2014 21:40:00 17.9 C 14.35 g/m*3 17.9 C 0 km/h
1414 06-09-2014 21:45:00 17.9 C 14.5 g/m*3 17.9 C 0 km/h
1415 06-09-2014 21:50:00 17.8 C 14.27 g/m*3 17.8 C 0 km/h
1416 06-09-2014 21:55:00 17.8 C 14.27 g/m*3 17.8 C 0 km/h
1417 06-09-2014 22:00:00 17.7 C 14.18 g/m*3 17.7 C 0 km/h
1418 06-09-2014 22:05:00 17.6 C 14.1 g/m*3 17.6 C 0 km/h
1419 06-09-2014 22:10:00 17.5 C 14.01 g/m*3 17.5 C 0 km/h
1420 06-09-2014 22:15:00 17.4 C 13.93 g/m*3 17.4 C 0 km/h
1421 06-09-2014 22:20:00 17.3 C 13.85 g/m*3 17.3 C 0 km/h
1422 06-09-2014 22:25:00 17.3 C 14 g/m*3 17.3 C 0 km/h
1423 06-09-2014 22:30:00 17.3 C 14 g/m*3 17.3 C 0 km/h
1424 06-09-2014 22:35:00 17.2 C 13.91 g/m*3 17.2 C 0 km/h
1425 06-09-2014 22:40:00 17.2 C 13.91 g/m*3 17.2 C 0 km/h
Sensor: Nr:Datum:Temp:Abs-Feuchte:Windchill:Wind:
Aussen-T/F 1426 06-09-2014 22:45:00 17.2 C 13.91 g/m*3 17.2 C 0 km/h
1427 06-09-2014 22:50:00 17.1 C 13.83 g/m*3 17.1 C 0 km/h
1428 06-09-2014 22:55:00 17.1 C 13.83 g/m*3 17.1 C 0 km/h
1429 06-09-2014 23:00:00 17 C 13.75 g/m*3 17 C 0 km/h
1430 06-09-2014 23:05:00 16.9 C 13.66 g/m*3 16.9 C 0 km/h
1431 06-09-2014 23:10:00 16.9 C 13.66 g/m*3 16.9 C 0 km/h
1432 06-09-2014 23:15:00 16.9 C 13.66 g/m*3 16.9 C 0 km/h
1433 06-09-2014 23:20:00 16.9 C 13.81 g/m*3 16.9 C 0 km/h
1434 06-09-2014 23:25:00 16.9 C 13.81 g/m*3 16.9 C 0 km/h
1435 06-09-2014 23:30:00 16.9 C 13.81 g/m*3 16.9 C 0 km/h
1436 06-09-2014 23:35:00 16.9 C 13.81 g/m*3 16.9 C 0 km/h
1437 06-09-2014 23:40:00 16.9 C 13.81 g/m*3 16.9 C 0 km/h
1438 06-09-2014 23:45:00 16.9 C 13.81 g/m*3 16.9 C 0 km/h
1439 06-09-2014 23:50:00 17 C 13.89 g/m*3 17 C 0 km/h
1440 06-09-2014 23:55:00 17 C 13.89 g/m*3 17 C 0 km/h

Legende:
   Min
   Max


Maximal/Minimal-Werte vom 02.09.2014 - 06.09.2014

Sensor Min Max Avg
Temp
(Aussen-T/F)
10.7 °C
02-09-2014  07:25:00
24.7 °C
06-09-2014  16:20:00
16.4 °C
Abs-Feuchte
(Aussen-T/F)
9.53 g/m*3
02-09-2014  07:25:00
17.09 g/m*3
06-09-2014  18:10:00
12.71 g/m*3
Windchill
(Aussen-T/F)
10.7 C
02-09-2014  07:25:00
24.7 C
06-09-2014  16:20:00
16.39 C

Die Daten stammen von einer Davis Vantage Pro 2 Wetter-Station und werden unter Linux mit der Software wview2wettercgi und aufbereitet. Alle Angaben erfolgen ohne Gewähr für ihre Vollständigkeit oder Richtigkeit.
Kontakt: Rainer Krienke krienke@uni-koblenz.de . Meine Webseiten an der Uni Koblenz oder privat.
Version: $Revision: 0.78 $